<?xml version="1.0" encoding="UTF-8" standalone="no" ?>
<gpx xmlns="http://www.topografix.com/GPX/1/1" creator="www.cicloide.com" version="1.1" xmlns:xsi="http://www.w3.org/2001/XMLSchema-instance" xsi:schemaLocation="http://www.topografix.com/GPX/1/1 http://www.topografix.com/GPX/1/1/gpx.xsd">
  <trk>
    <name>www.cicloide.com 13082</name>
    <desc>www.cicloide.com 13082</desc>
    <trkseg>
      <trkpt lat="41.544357000" lon="1.885824000">
        <ele>117.80</ele>
        <time>2013-04-16T17:14:01Z</time>
      </trkpt>
      <trkpt lat="41.544521000" lon="1.885624000">
        <ele>115.00</ele>
        <time>2013-04-16T17:14:07Z</time>
      </trkpt>
      <trkpt lat="41.544653000" lon="1.885462000">
        <ele>113.10</ele>
        <time>2013-04-16T17:14:11Z</time>
      </trkpt>
      <trkpt lat="41.544811000" lon="1.885269000">
        <ele>110.60</ele>
        <time>2013-04-16T17:14:15Z</time>
      </trkpt>
      <trkpt lat="41.544952000" lon="1.885095000">
        <ele>108.00</ele>
        <time>2013-04-16T17:14:18Z</time>
      </trkpt>
      <trkpt lat="41.545112000" lon="1.884898000">
        <ele>105.90</ele>
        <time>2013-04-16T17:14:21Z</time>
      </trkpt>
      <trkpt lat="41.545290000" lon="1.884682000">
        <ele>104.90</ele>
        <time>2013-04-16T17:14:24Z</time>
      </trkpt>
      <trkpt lat="41.545471000" lon="1.884466000">
        <ele>103.70</ele>
        <time>2013-04-16T17:14:27Z</time>
      </trkpt>
      <trkpt lat="41.545642000" lon="1.884249000">
        <ele>102.50</ele>
        <time>2013-04-16T17:14:30Z</time>
      </trkpt>
      <trkpt lat="41.545694000" lon="1.883998000">
        <ele>101.70</ele>
        <time>2013-04-16T17:14:33Z</time>
      </trkpt>
      <trkpt lat="41.545527000" lon="1.883844000">
        <ele>99.30</ele>
        <time>2013-04-16T17:14:36Z</time>
      </trkpt>
      <trkpt lat="41.545313000" lon="1.883739000">
        <ele>98.10</ele>
        <time>2013-04-16T17:14:39Z</time>
      </trkpt>
      <trkpt lat="41.545096000" lon="1.883638000">
        <ele>96.70</ele>
        <time>2013-04-16T17:14:42Z</time>
      </trkpt>
      <trkpt lat="41.544904000" lon="1.883554000">
        <ele>94.80</ele>
        <time>2013-04-16T17:14:45Z</time>
      </trkpt>
      <trkpt lat="41.544745000" lon="1.883402000">
        <ele>96.40</ele>
        <time>2013-04-16T17:14:48Z</time>
      </trkpt>
      <trkpt lat="41.544622000" lon="1.883145000">
        <ele>98.00</ele>
        <time>2013-04-16T17:14:52Z</time>
      </trkpt>
      <trkpt lat="41.544684000" lon="1.882873000">
        <ele>99.20</ele>
        <time>2013-04-16T17:14:56Z</time>
      </trkpt>
      <trkpt lat="41.544777000" lon="1.882579000">
        <ele>97.60</ele>
        <time>2013-04-16T17:15:00Z</time>
      </trkpt>
      <trkpt lat="41.544768000" lon="1.882308000">
        <ele>96.70</ele>
        <time>2013-04-16T17:15:03Z</time>
      </trkpt>
      <trkpt lat="41.544682000" lon="1.882058000">
        <ele>94.60</ele>
        <time>2013-04-16T17:15:06Z</time>
      </trkpt>
      <trkpt lat="41.544514000" lon="1.881845000">
        <ele>92.90</ele>
        <time>2013-04-16T17:15:09Z</time>
      </trkpt>
      <trkpt lat="41.544308000" lon="1.881759000">
        <ele>91.30</ele>
        <time>2013-04-16T17:15:12Z</time>
      </trkpt>
      <trkpt lat="41.544093000" lon="1.881799000">
        <ele>90.60</ele>
        <time>2013-04-16T17:15:15Z</time>
      </trkpt>
      <trkpt lat="41.543909000" lon="1.881942000">
        <ele>88.90</ele>
        <time>2013-04-16T17:15:18Z</time>
      </trkpt>
      <trkpt lat="41.543735000" lon="1.882039000">
        <ele>88.90</ele>
        <time>2013-04-16T17:15:21Z</time>
      </trkpt>
      <trkpt lat="41.543569000" lon="1.881953000">
        <ele>87.60</ele>
        <time>2013-04-16T17:15:24Z</time>
      </trkpt>
      <trkpt lat="41.543378000" lon="1.881832000">
        <ele>84.60</ele>
        <time>2013-04-16T17:15:27Z</time>
      </trkpt>
      <trkpt lat="41.543173000" lon="1.881684000">
        <ele>83.10</ele>
        <time>2013-04-16T17:15:30Z</time>
      </trkpt>
      <trkpt lat="41.542943000" lon="1.881546000">
        <ele>80.80</ele>
        <time>2013-04-16T17:15:33Z</time>
      </trkpt>
      <trkpt lat="41.542775000" lon="1.881444000">
        <ele>80.00</ele>
        <time>2013-04-16T17:15:35Z</time>
      </trkpt>
      <trkpt lat="41.542603000" lon="1.881333000">
        <ele>79.40</ele>
        <time>2013-04-16T17:15:37Z</time>
      </trkpt>
      <trkpt lat="41.542442000" lon="1.881228000">
        <ele>77.70</ele>
        <time>2013-04-16T17:15:39Z</time>
      </trkpt>
      <trkpt lat="41.542211000" lon="1.881079000">
        <ele>76.80</ele>
        <time>2013-04-16T17:15:42Z</time>
      </trkpt>
      <trkpt lat="41.541998000" lon="1.880942000">
        <ele>78.00</ele>
        <time>2013-04-16T17:15:45Z</time>
      </trkpt>
      <trkpt lat="41.541798000" lon="1.880813000">
        <ele>75.80</ele>
        <time>2013-04-16T17:15:48Z</time>
      </trkpt>
      <trkpt lat="41.541609000" lon="1.880694000">
        <ele>77.00</ele>
        <time>2013-04-16T17:15:51Z</time>
      </trkpt>
      <trkpt lat="41.541426000" lon="1.880574000">
        <ele>76.00</ele>
        <time>2013-04-16T17:15:54Z</time>
      </trkpt>
      <trkpt lat="41.541235000" lon="1.880475000">
        <ele>76.00</ele>
        <time>2013-04-16T17:15:57Z</time>
      </trkpt>
      <trkpt lat="41.541050000" lon="1.880394000">
        <ele>75.60</ele>
        <time>2013-04-16T17:16:00Z</time>
      </trkpt>
      <trkpt lat="41.540866000" lon="1.880358000">
        <ele>75.50</ele>
        <time>2013-04-16T17:16:03Z</time>
      </trkpt>
      <trkpt lat="41.540644000" lon="1.880340000">
        <ele>77.20</ele>
        <time>2013-04-16T17:16:07Z</time>
      </trkpt>
      <trkpt lat="41.540438000" lon="1.880311000">
        <ele>77.60</ele>
        <time>2013-04-16T17:16:11Z</time>
      </trkpt>
      <trkpt lat="41.540246000" lon="1.880299000">
        <ele>78.90</ele>
        <time>2013-04-16T17:16:15Z</time>
      </trkpt>
      <trkpt lat="41.540077000" lon="1.880346000">
        <ele>79.50</ele>
        <time>2013-04-16T17:16:19Z</time>
      </trkpt>
      <trkpt lat="41.539923000" lon="1.880482000">
        <ele>79.60</ele>
        <time>2013-04-16T17:16:23Z</time>
      </trkpt>
      <trkpt lat="41.539787000" lon="1.880654000">
        <ele>79.80</ele>
        <time>2013-04-16T17:16:27Z</time>
      </trkpt>
      <trkpt lat="41.539641000" lon="1.880833000">
        <ele>80.10</ele>
        <time>2013-04-16T17:16:31Z</time>
      </trkpt>
      <trkpt lat="41.539502000" lon="1.881006000">
        <ele>80.00</ele>
        <time>2013-04-16T17:16:35Z</time>
      </trkpt>
      <trkpt lat="41.539371000" lon="1.881174000">
        <ele>80.40</ele>
        <time>2013-04-16T17:16:39Z</time>
      </trkpt>
      <trkpt lat="41.539238000" lon="1.881348000">
        <ele>80.40</ele>
        <time>2013-04-16T17:16:43Z</time>
      </trkpt>
      <trkpt lat="41.539103000" lon="1.881524000">
        <ele>81.00</ele>
        <time>2013-04-16T17:16:47Z</time>
      </trkpt>
      <trkpt lat="41.538969000" lon="1.881701000">
        <ele>82.40</ele>
        <time>2013-04-16T17:16:51Z</time>
      </trkpt>
      <trkpt lat="41.538848000" lon="1.881904000">
        <ele>82.40</ele>
        <time>2013-04-16T17:16:55Z</time>
      </trkpt>
      <trkpt lat="41.538733000" lon="1.882111000">
        <ele>82.20</ele>
        <time>2013-04-16T17:16:59Z</time>
      </trkpt>
      <trkpt lat="41.538629000" lon="1.882340000">
        <ele>82.50</ele>
        <time>2013-04-16T17:17:03Z</time>
      </trkpt>
      <trkpt lat="41.538551000" lon="1.882574000">
        <ele>82.50</ele>
        <time>2013-04-16T17:17:07Z</time>
      </trkpt>
      <trkpt lat="41.538495000" lon="1.882810000">
        <ele>82.90</ele>
        <time>2013-04-16T17:17:11Z</time>
      </trkpt>
      <trkpt lat="41.538406000" lon="1.883031000">
        <ele>83.40</ele>
        <time>2013-04-16T17:17:15Z</time>
      </trkpt>
      <trkpt lat="41.538281000" lon="1.883214000">
        <ele>84.20</ele>
        <time>2013-04-16T17:17:19Z</time>
      </trkpt>
      <trkpt lat="41.538151000" lon="1.883393000">
        <ele>84.00</ele>
        <time>2013-04-16T17:17:23Z</time>
      </trkpt>
      <trkpt lat="41.537989000" lon="1.883593000">
        <ele>84.70</ele>
        <time>2013-04-16T17:17:28Z</time>
      </trkpt>
      <trkpt lat="41.537825000" lon="1.883798000">
        <ele>85.40</ele>
        <time>2013-04-16T17:17:33Z</time>
      </trkpt>
      <trkpt lat="41.537649000" lon="1.883974000">
        <ele>86.00</ele>
        <time>2013-04-16T17:17:38Z</time>
      </trkpt>
      <trkpt lat="41.537500000" lon="1.884102000">
        <ele>86.60</ele>
        <time>2013-04-16T17:17:42Z</time>
      </trkpt>
      <trkpt lat="41.537331000" lon="1.884293000">
        <ele>88.00</ele>
        <time>2013-04-16T17:17:47Z</time>
      </trkpt>
      <trkpt lat="41.537172000" lon="1.884504000">
        <ele>87.60</ele>
        <time>2013-04-16T17:17:52Z</time>
      </trkpt>
      <trkpt lat="41.536989000" lon="1.884653000">
        <ele>89.00</ele>
        <time>2013-04-16T17:17:57Z</time>
      </trkpt>
      <trkpt lat="41.536857000" lon="1.884891000">
        <ele>89.00</ele>
        <time>2013-04-16T17:18:02Z</time>
      </trkpt>
      <trkpt lat="41.536725000" lon="1.885126000">
        <ele>89.80</ele>
        <time>2013-04-16T17:18:07Z</time>
      </trkpt>
      <trkpt lat="41.536558000" lon="1.885270000">
        <ele>90.90</ele>
        <time>2013-04-16T17:18:12Z</time>
      </trkpt>
      <trkpt lat="41.536475000" lon="1.885239000">
        <ele>92.40</ele>
        <time>2013-04-16T17:18:20Z</time>
      </trkpt>
      <trkpt lat="41.536646000" lon="1.885116000">
        <ele>94.10</ele>
        <time>2013-04-16T17:18:27Z</time>
      </trkpt>
      <trkpt lat="41.536721000" lon="1.884895000">
        <ele>98.40</ele>
        <time>2013-04-16T17:18:35Z</time>
      </trkpt>
      <trkpt lat="41.536758000" lon="1.884656000">
        <ele>101.70</ele>
        <time>2013-04-16T17:19:13Z</time>
      </trkpt>
      <trkpt lat="41.536799000" lon="1.884393000">
        <ele>102.30</ele>
        <time>2013-04-16T17:19:21Z</time>
      </trkpt>
      <trkpt lat="41.536930000" lon="1.884211000">
        <ele>102.80</ele>
        <time>2013-04-16T17:19:29Z</time>
      </trkpt>
      <trkpt lat="41.536994000" lon="1.884083000">
        <ele>104.90</ele>
        <time>2013-04-16T17:19:38Z</time>
      </trkpt>
      <trkpt lat="41.536825000" lon="1.884173000">
        <ele>106.20</ele>
        <time>2013-04-16T17:19:46Z</time>
      </trkpt>
      <trkpt lat="41.536688000" lon="1.884325000">
        <ele>108.00</ele>
        <time>2013-04-16T17:19:55Z</time>
      </trkpt>
      <trkpt lat="41.536690000" lon="1.884582000">
        <ele>105.90</ele>
        <time>2013-04-16T17:20:03Z</time>
      </trkpt>
      <trkpt lat="41.536566000" lon="1.884797000">
        <ele>105.00</ele>
        <time>2013-04-16T17:20:08Z</time>
      </trkpt>
      <trkpt lat="41.536383000" lon="1.884891000">
        <ele>105.60</ele>
        <time>2013-04-16T17:20:14Z</time>
      </trkpt>
      <trkpt lat="41.536214000" lon="1.884980000">
        <ele>107.20</ele>
        <time>2013-04-16T17:20:21Z</time>
      </trkpt>
      <trkpt lat="41.536106000" lon="1.885187000">
        <ele>108.00</ele>
        <time>2013-04-16T17:20:28Z</time>
      </trkpt>
      <trkpt lat="41.535995000" lon="1.885402000">
        <ele>108.30</ele>
        <time>2013-04-16T17:20:36Z</time>
      </trkpt>
      <trkpt lat="41.535859000" lon="1.885554000">
        <ele>109.20</ele>
        <time>2013-04-16T17:20:44Z</time>
      </trkpt>
      <trkpt lat="41.535709000" lon="1.885707000">
        <ele>109.90</ele>
        <time>2013-04-16T17:20:52Z</time>
      </trkpt>
      <trkpt lat="41.535655000" lon="1.885652000">
        <ele>112.50</ele>
        <time>2013-04-16T17:21:03Z</time>
      </trkpt>
      <trkpt lat="41.535783000" lon="1.885458000">
        <ele>115.70</ele>
        <time>2013-04-16T17:21:14Z</time>
      </trkpt>
      <trkpt lat="41.535751000" lon="1.885490000">
        <ele>115.20</ele>
        <time>2013-04-16T17:21:31Z</time>
      </trkpt>
      <trkpt lat="41.535635000" lon="1.885690000">
        <ele>112.10</ele>
        <time>2013-04-16T17:21:37Z</time>
      </trkpt>
      <trkpt lat="41.535658000" lon="1.885954000">
        <ele>111.00</ele>
        <time>2013-04-16T17:21:46Z</time>
      </trkpt>
      <trkpt lat="41.535615000" lon="1.886191000">
        <ele>111.00</ele>
        <time>2013-04-16T17:21:52Z</time>
      </trkpt>
      <trkpt lat="41.535476000" lon="1.886347000">
        <ele>111.30</ele>
        <time>2013-04-16T17:21:59Z</time>
      </trkpt>
      <trkpt lat="41.535297000" lon="1.886427000">
        <ele>113.00</ele>
        <time>2013-04-16T17:22:06Z</time>
      </trkpt>
      <trkpt lat="41.535198000" lon="1.886648000">
        <ele>114.70</ele>
        <time>2013-04-16T17:22:16Z</time>
      </trkpt>
      <trkpt lat="41.535057000" lon="1.886813000">
        <ele>116.50</ele>
        <time>2013-04-16T17:22:24Z</time>
      </trkpt>
      <trkpt lat="41.534974000" lon="1.886680000">
        <ele>120.30</ele>
        <time>2013-04-16T17:22:36Z</time>
      </trkpt>
      <trkpt lat="41.534832000" lon="1.886743000">
        <ele>122.10</ele>
        <time>2013-04-16T17:22:47Z</time>
      </trkpt>
      <trkpt lat="41.534654000" lon="1.886745000">
        <ele>125.30</ele>
        <time>2013-04-16T17:22:59Z</time>
      </trkpt>
      <trkpt lat="41.534487000" lon="1.886641000">
        <ele>128.40</ele>
        <time>2013-04-16T17:23:13Z</time>
      </trkpt>
      <trkpt lat="41.534360000" lon="1.886471000">
        <ele>131.40</ele>
        <time>2013-04-16T17:23:28Z</time>
      </trkpt>
      <trkpt lat="41.534324000" lon="1.886241000">
        <ele>134.50</ele>
        <time>2013-04-16T17:23:43Z</time>
      </trkpt>
      <trkpt lat="41.534363000" lon="1.885999000">
        <ele>137.90</ele>
        <time>2013-04-16T17:24:07Z</time>
      </trkpt>
      <trkpt lat="41.534456000" lon="1.885774000">
        <ele>139.30</ele>
        <time>2013-04-16T17:24:18Z</time>
      </trkpt>
      <trkpt lat="41.534535000" lon="1.885551000">
        <ele>141.30</ele>
        <time>2013-04-16T17:24:28Z</time>
      </trkpt>
      <trkpt lat="41.534528000" lon="1.885306000">
        <ele>144.30</ele>
        <time>2013-04-16T17:24:38Z</time>
      </trkpt>
      <trkpt lat="41.534482000" lon="1.885055000">
        <ele>145.40</ele>
        <time>2013-04-16T17:24:49Z</time>
      </trkpt>
      <trkpt lat="41.534528000" lon="1.884811000">
        <ele>145.20</ele>
        <time>2013-04-16T17:24:58Z</time>
      </trkpt>
      <trkpt lat="41.534569000" lon="1.884569000">
        <ele>146.00</ele>
        <time>2013-04-16T17:25:05Z</time>
      </trkpt>
      <trkpt lat="41.534603000" lon="1.884312000">
        <ele>147.00</ele>
        <time>2013-04-16T17:25:13Z</time>
      </trkpt>
      <trkpt lat="41.534702000" lon="1.884092000">
        <ele>147.40</ele>
        <time>2013-04-16T17:25:20Z</time>
      </trkpt>
      <trkpt lat="41.534827000" lon="1.883903000">
        <ele>148.40</ele>
        <time>2013-04-16T17:25:27Z</time>
      </trkpt>
      <trkpt lat="41.534894000" lon="1.883674000">
        <ele>149.20</ele>
        <time>2013-04-16T17:25:34Z</time>
      </trkpt>
      <trkpt lat="41.534944000" lon="1.883441000">
        <ele>150.50</ele>
        <time>2013-04-16T17:25:40Z</time>
      </trkpt>
      <trkpt lat="41.535029000" lon="1.883207000">
        <ele>152.30</ele>
        <time>2013-04-16T17:25:47Z</time>
      </trkpt>
      <trkpt lat="41.535132000" lon="1.883003000">
        <ele>153.80</ele>
        <time>2013-04-16T17:25:54Z</time>
      </trkpt>
      <trkpt lat="41.535258000" lon="1.882798000">
        <ele>155.50</ele>
        <time>2013-04-16T17:26:02Z</time>
      </trkpt>
      <trkpt lat="41.535386000" lon="1.882577000">
        <ele>156.30</ele>
        <time>2013-04-16T17:26:10Z</time>
      </trkpt>
      <trkpt lat="41.535548000" lon="1.882400000">
        <ele>156.40</ele>
        <time>2013-04-16T17:26:19Z</time>
      </trkpt>
      <trkpt lat="41.535699000" lon="1.882182000">
        <ele>153.90</ele>
        <time>2013-04-16T17:26:25Z</time>
      </trkpt>
      <trkpt lat="41.535761000" lon="1.881955000">
        <ele>152.20</ele>
        <time>2013-04-16T17:26:29Z</time>
      </trkpt>
      <trkpt lat="41.535826000" lon="1.881737000">
        <ele>153.70</ele>
        <time>2013-04-16T17:26:34Z</time>
      </trkpt>
      <trkpt lat="41.535953000" lon="1.881530000">
        <ele>154.80</ele>
        <time>2013-04-16T17:26:42Z</time>
      </trkpt>
      <trkpt lat="41.535993000" lon="1.881293000">
        <ele>158.00</ele>
        <time>2013-04-16T17:26:51Z</time>
      </trkpt>
      <trkpt lat="41.536009000" lon="1.881026000">
        <ele>160.40</ele>
        <time>2013-04-16T17:27:00Z</time>
      </trkpt>
      <trkpt lat="41.536047000" lon="1.880800000">
        <ele>162.90</ele>
        <time>2013-04-16T17:27:09Z</time>
      </trkpt>
      <trkpt lat="41.536120000" lon="1.880563000">
        <ele>165.70</ele>
        <time>2013-04-16T17:27:19Z</time>
      </trkpt>
      <trkpt lat="41.536257000" lon="1.880392000">
        <ele>167.90</ele>
        <time>2013-04-16T17:27:28Z</time>
      </trkpt>
      <trkpt lat="41.536383000" lon="1.880206000">
        <ele>169.90</ele>
        <time>2013-04-16T17:27:40Z</time>
      </trkpt>
      <trkpt lat="41.536400000" lon="1.879978000">
        <ele>171.20</ele>
        <time>2013-04-16T17:27:52Z</time>
      </trkpt>
      <trkpt lat="41.536386000" lon="1.879705000">
        <ele>171.30</ele>
        <time>2013-04-16T17:28:03Z</time>
      </trkpt>
      <trkpt lat="41.536358000" lon="1.879452000">
        <ele>171.30</ele>
        <time>2013-04-16T17:28:27Z</time>
      </trkpt>
      <trkpt lat="41.536387000" lon="1.879221000">
        <ele>173.90</ele>
        <time>2013-04-16T17:28:36Z</time>
      </trkpt>
      <trkpt lat="41.536426000" lon="1.878987000">
        <ele>177.20</ele>
        <time>2013-04-16T17:28:46Z</time>
      </trkpt>
      <trkpt lat="41.536567000" lon="1.879172000">
        <ele>177.70</ele>
        <time>2013-04-16T17:28:56Z</time>
      </trkpt>
      <trkpt lat="41.536702000" lon="1.879135000">
        <ele>179.00</ele>
        <time>2013-04-16T17:29:06Z</time>
      </trkpt>
      <trkpt lat="41.536747000" lon="1.878923000">
        <ele>180.60</ele>
        <time>2013-04-16T17:29:16Z</time>
      </trkpt>
      <trkpt lat="41.536865000" lon="1.878740000">
        <ele>181.40</ele>
        <time>2013-04-16T17:29:25Z</time>
      </trkpt>
      <trkpt lat="41.536913000" lon="1.878508000">
        <ele>182.50</ele>
        <time>2013-04-16T17:29:34Z</time>
      </trkpt>
      <trkpt lat="41.536931000" lon="1.878261000">
        <ele>183.10</ele>
        <time>2013-04-16T17:29:44Z</time>
      </trkpt>
      <trkpt lat="41.536783000" lon="1.878103000">
        <ele>183.70</ele>
        <time>2013-04-16T17:29:55Z</time>
      </trkpt>
      <trkpt lat="41.536617000" lon="1.877995000">
        <ele>184.70</ele>
        <time>2013-04-16T17:30:05Z</time>
      </trkpt>
      <trkpt lat="41.536444000" lon="1.877900000">
        <ele>185.00</ele>
        <time>2013-04-16T17:30:15Z</time>
      </trkpt>
      <trkpt lat="41.536261000" lon="1.877811000">
        <ele>184.50</ele>
        <time>2013-04-16T17:30:25Z</time>
      </trkpt>
      <trkpt lat="41.536081000" lon="1.877713000">
        <ele>183.90</ele>
        <time>2013-04-16T17:30:32Z</time>
      </trkpt>
      <trkpt lat="41.535920000" lon="1.877602000">
        <ele>182.90</ele>
        <time>2013-04-16T17:30:37Z</time>
      </trkpt>
      <trkpt lat="41.535848000" lon="1.877373000">
        <ele>182.70</ele>
        <time>2013-04-16T17:30:45Z</time>
      </trkpt>
      <trkpt lat="41.535661000" lon="1.877260000">
        <ele>183.40</ele>
        <time>2013-04-16T17:30:52Z</time>
      </trkpt>
      <trkpt lat="41.535510000" lon="1.877110000">
        <ele>183.80</ele>
        <time>2013-04-16T17:30:59Z</time>
      </trkpt>
      <trkpt lat="41.535580000" lon="1.876860000">
        <ele>184.00</ele>
        <time>2013-04-16T17:31:06Z</time>
      </trkpt>
      <trkpt lat="41.535689000" lon="1.876625000">
        <ele>184.30</ele>
        <time>2013-04-16T17:31:12Z</time>
      </trkpt>
      <trkpt lat="41.535781000" lon="1.876396000">
        <ele>184.20</ele>
        <time>2013-04-16T17:31:17Z</time>
      </trkpt>
      <trkpt lat="41.535882000" lon="1.876170000">
        <ele>184.10</ele>
        <time>2013-04-16T17:31:22Z</time>
      </trkpt>
      <trkpt lat="41.535999000" lon="1.875961000">
        <ele>184.00</ele>
        <time>2013-04-16T17:31:27Z</time>
      </trkpt>
      <trkpt lat="41.536126000" lon="1.875762000">
        <ele>183.80</ele>
        <time>2013-04-16T17:31:32Z</time>
      </trkpt>
      <trkpt lat="41.536279000" lon="1.875536000">
        <ele>183.10</ele>
        <time>2013-04-16T17:31:37Z</time>
      </trkpt>
      <trkpt lat="41.536417000" lon="1.875344000">
        <ele>182.50</ele>
        <time>2013-04-16T17:31:41Z</time>
      </trkpt>
      <trkpt lat="41.536570000" lon="1.875141000">
        <ele>181.50</ele>
        <time>2013-04-16T17:31:45Z</time>
      </trkpt>
      <trkpt lat="41.536703000" lon="1.874896000">
        <ele>181.40</ele>
        <time>2013-04-16T17:31:49Z</time>
      </trkpt>
      <trkpt lat="41.536807000" lon="1.874616000">
        <ele>180.80</ele>
        <time>2013-04-16T17:31:53Z</time>
      </trkpt>
      <trkpt lat="41.536882000" lon="1.874386000">
        <ele>180.10</ele>
        <time>2013-04-16T17:31:56Z</time>
      </trkpt>
      <trkpt lat="41.536942000" lon="1.874142000">
        <ele>179.50</ele>
        <time>2013-04-16T17:31:59Z</time>
      </trkpt>
      <trkpt lat="41.536998000" lon="1.873898000">
        <ele>178.80</ele>
        <time>2013-04-16T17:32:02Z</time>
      </trkpt>
      <trkpt lat="41.537044000" lon="1.873660000">
        <ele>179.60</ele>
        <time>2013-04-16T17:32:05Z</time>
      </trkpt>
      <trkpt lat="41.537092000" lon="1.873382000">
        <ele>181.10</ele>
        <time>2013-04-16T17:32:09Z</time>
      </trkpt>
      <trkpt lat="41.537141000" lon="1.873149000">
        <ele>181.90</ele>
        <time>2013-04-16T17:32:13Z</time>
      </trkpt>
      <trkpt lat="41.537240000" lon="1.872937000">
        <ele>182.20</ele>
        <time>2013-04-16T17:32:18Z</time>
      </trkpt>
      <trkpt lat="41.537358000" lon="1.872760000">
        <ele>181.90</ele>
        <time>2013-04-16T17:32:23Z</time>
      </trkpt>
      <trkpt lat="41.537254000" lon="1.872590000">
        <ele>180.30</ele>
        <time>2013-04-16T17:32:28Z</time>
      </trkpt>
      <trkpt lat="41.537049000" lon="1.872522000">
        <ele>180.40</ele>
        <time>2013-04-16T17:32:34Z</time>
      </trkpt>
      <trkpt lat="41.537027000" lon="1.872277000">
        <ele>180.90</ele>
        <time>2013-04-16T17:32:40Z</time>
      </trkpt>
      <trkpt lat="41.537062000" lon="1.872047000">
        <ele>179.50</ele>
        <time>2013-04-16T17:32:46Z</time>
      </trkpt>
      <trkpt lat="41.537022000" lon="1.871820000">
        <ele>174.70</ele>
        <time>2013-04-16T17:32:51Z</time>
      </trkpt>
      <trkpt lat="41.536915000" lon="1.871577000">
        <ele>171.90</ele>
        <time>2013-04-16T17:32:55Z</time>
      </trkpt>
      <trkpt lat="41.536817000" lon="1.871369000">
        <ele>170.40</ele>
        <time>2013-04-16T17:33:01Z</time>
      </trkpt>
      <trkpt lat="41.536745000" lon="1.871127000">
        <ele>168.40</ele>
        <time>2013-04-16T17:33:07Z</time>
      </trkpt>
      <trkpt lat="41.536644000" lon="1.870920000">
        <ele>166.90</ele>
        <time>2013-04-16T17:33:11Z</time>
      </trkpt>
      <trkpt lat="41.536528000" lon="1.870680000">
        <ele>165.20</ele>
        <time>2013-04-16T17:33:15Z</time>
      </trkpt>
      <trkpt lat="41.536405000" lon="1.870420000">
        <ele>163.50</ele>
        <time>2013-04-16T17:33:19Z</time>
      </trkpt>
      <trkpt lat="41.536306000" lon="1.870196000">
        <ele>162.70</ele>
        <time>2013-04-16T17:33:22Z</time>
      </trkpt>
      <trkpt lat="41.536204000" lon="1.869964000">
        <ele>161.80</ele>
        <time>2013-04-16T17:33:25Z</time>
      </trkpt>
      <trkpt lat="41.536095000" lon="1.869736000">
        <ele>161.90</ele>
        <time>2013-04-16T17:33:29Z</time>
      </trkpt>
      <trkpt lat="41.535987000" lon="1.869467000">
        <ele>161.10</ele>
        <time>2013-04-16T17:33:34Z</time>
      </trkpt>
      <trkpt lat="41.535896000" lon="1.869236000">
        <ele>161.30</ele>
        <time>2013-04-16T17:33:39Z</time>
      </trkpt>
      <trkpt lat="41.535927000" lon="1.869007000">
        <ele>161.70</ele>
        <time>2013-04-16T17:33:46Z</time>
      </trkpt>
      <trkpt lat="41.535815000" lon="1.868769000">
        <ele>159.50</ele>
        <time>2013-04-16T17:33:54Z</time>
      </trkpt>
      <trkpt lat="41.535709000" lon="1.868539000">
        <ele>156.30</ele>
        <time>2013-04-16T17:33:59Z</time>
      </trkpt>
      <trkpt lat="41.535551000" lon="1.868585000">
        <ele>155.30</ele>
        <time>2013-04-16T17:34:19Z</time>
      </trkpt>
      <trkpt lat="41.535527000" lon="1.868638000">
        <ele>155.30</ele>
        <time>2013-04-16T17:34:46Z</time>
      </trkpt>
      <trkpt lat="41.535672000" lon="1.868473000">
        <ele>155.70</ele>
        <time>2013-04-16T17:34:53Z</time>
      </trkpt>
      <trkpt lat="41.535857000" lon="1.868378000">
        <ele>157.20</ele>
        <time>2013-04-16T17:35:00Z</time>
      </trkpt>
      <trkpt lat="41.536011000" lon="1.868262000">
        <ele>157.80</ele>
        <time>2013-04-16T17:35:06Z</time>
      </trkpt>
      <trkpt lat="41.536160000" lon="1.868144000">
        <ele>158.40</ele>
        <time>2013-04-16T17:35:12Z</time>
      </trkpt>
      <trkpt lat="41.536323000" lon="1.868031000">
        <ele>159.50</ele>
        <time>2013-04-16T17:35:18Z</time>
      </trkpt>
      <trkpt lat="41.536482000" lon="1.867920000">
        <ele>160.40</ele>
        <time>2013-04-16T17:35:24Z</time>
      </trkpt>
      <trkpt lat="41.536679000" lon="1.867817000">
        <ele>161.40</ele>
        <time>2013-04-16T17:35:30Z</time>
      </trkpt>
      <trkpt lat="41.536836000" lon="1.867661000">
        <ele>162.20</ele>
        <time>2013-04-16T17:35:36Z</time>
      </trkpt>
      <trkpt lat="41.536934000" lon="1.867532000">
        <ele>162.60</ele>
        <time>2013-04-16T17:35:51Z</time>
      </trkpt>
      <trkpt lat="41.536771000" lon="1.867292000">
        <ele>160.30</ele>
        <time>2013-04-16T17:35:56Z</time>
      </trkpt>
      <trkpt lat="41.536658000" lon="1.867074000">
        <ele>158.10</ele>
        <time>2013-04-16T17:35:59Z</time>
      </trkpt>
      <trkpt lat="41.536545000" lon="1.866835000">
        <ele>157.60</ele>
        <time>2013-04-16T17:36:02Z</time>
      </trkpt>
      <trkpt lat="41.536420000" lon="1.866610000">
        <ele>157.50</ele>
        <time>2013-04-16T17:36:05Z</time>
      </trkpt>
      <trkpt lat="41.536238000" lon="1.866434000">
        <ele>158.50</ele>
        <time>2013-04-16T17:36:09Z</time>
      </trkpt>
      <trkpt lat="41.536072000" lon="1.866358000">
        <ele>159.50</ele>
        <time>2013-04-16T17:36:13Z</time>
      </trkpt>
      <trkpt lat="41.535870000" lon="1.866312000">
        <ele>160.80</ele>
        <time>2013-04-16T17:36:18Z</time>
      </trkpt>
      <trkpt lat="41.535793000" lon="1.866221000">
        <ele>162.10</ele>
        <time>2013-04-16T17:36:38Z</time>
      </trkpt>
      <trkpt lat="41.535910000" lon="1.866029000">
        <ele>163.50</ele>
        <time>2013-04-16T17:36:48Z</time>
      </trkpt>
      <trkpt lat="41.536006000" lon="1.865817000">
        <ele>165.70</ele>
        <time>2013-04-16T17:36:58Z</time>
      </trkpt>
      <trkpt lat="41.536084000" lon="1.865585000">
        <ele>168.10</ele>
        <time>2013-04-16T17:37:08Z</time>
      </trkpt>
      <trkpt lat="41.536191000" lon="1.865350000">
        <ele>168.60</ele>
        <time>2013-04-16T17:37:16Z</time>
      </trkpt>
      <trkpt lat="41.536295000" lon="1.865120000">
        <ele>169.40</ele>
        <time>2013-04-16T17:37:23Z</time>
      </trkpt>
      <trkpt lat="41.536407000" lon="1.864887000">
        <ele>170.10</ele>
        <time>2013-04-16T17:37:30Z</time>
      </trkpt>
      <trkpt lat="41.536518000" lon="1.864682000">
        <ele>171.30</ele>
        <time>2013-04-16T17:37:37Z</time>
      </trkpt>
      <trkpt lat="41.536628000" lon="1.864471000">
        <ele>172.20</ele>
        <time>2013-04-16T17:37:44Z</time>
      </trkpt>
      <trkpt lat="41.536740000" lon="1.864260000">
        <ele>173.30</ele>
        <time>2013-04-16T17:37:51Z</time>
      </trkpt>
      <trkpt lat="41.536862000" lon="1.864050000">
        <ele>174.10</ele>
        <time>2013-04-16T17:37:59Z</time>
      </trkpt>
      <trkpt lat="41.537004000" lon="1.863892000">
        <ele>174.50</ele>
        <time>2013-04-16T17:38:06Z</time>
      </trkpt>
      <trkpt lat="41.537125000" lon="1.863710000">
        <ele>174.90</ele>
        <time>2013-04-16T17:38:13Z</time>
      </trkpt>
      <trkpt lat="41.537229000" lon="1.863486000">
        <ele>175.10</ele>
        <time>2013-04-16T17:38:20Z</time>
      </trkpt>
      <trkpt lat="41.537383000" lon="1.863309000">
        <ele>175.50</ele>
        <time>2013-04-16T17:38:27Z</time>
      </trkpt>
      <trkpt lat="41.537561000" lon="1.863162000">
        <ele>176.00</ele>
        <time>2013-04-16T17:38:34Z</time>
      </trkpt>
      <trkpt lat="41.537737000" lon="1.863018000">
        <ele>176.60</ele>
        <time>2013-04-16T17:38:41Z</time>
      </trkpt>
      <trkpt lat="41.537889000" lon="1.862879000">
        <ele>177.20</ele>
        <time>2013-04-16T17:38:47Z</time>
      </trkpt>
      <trkpt lat="41.538060000" lon="1.862707000">
        <ele>177.50</ele>
        <time>2013-04-16T17:38:54Z</time>
      </trkpt>
      <trkpt lat="41.538208000" lon="1.862551000">
        <ele>178.10</ele>
        <time>2013-04-16T17:39:00Z</time>
      </trkpt>
      <trkpt lat="41.538360000" lon="1.862404000">
        <ele>178.60</ele>
        <time>2013-04-16T17:39:06Z</time>
      </trkpt>
      <trkpt lat="41.538520000" lon="1.862263000">
        <ele>179.20</ele>
        <time>2013-04-16T17:39:12Z</time>
      </trkpt>
      <trkpt lat="41.538667000" lon="1.862121000">
        <ele>180.00</ele>
        <time>2013-04-16T17:39:18Z</time>
      </trkpt>
      <trkpt lat="41.538791000" lon="1.861962000">
        <ele>180.60</ele>
        <time>2013-04-16T17:39:24Z</time>
      </trkpt>
      <trkpt lat="41.538760000" lon="1.861746000">
        <ele>180.50</ele>
        <time>2013-04-16T17:39:30Z</time>
      </trkpt>
      <trkpt lat="41.538628000" lon="1.861545000">
        <ele>179.70</ele>
        <time>2013-04-16T17:39:35Z</time>
      </trkpt>
      <trkpt lat="41.538501000" lon="1.861328000">
        <ele>179.90</ele>
        <time>2013-04-16T17:39:40Z</time>
      </trkpt>
      <trkpt lat="41.538362000" lon="1.861110000">
        <ele>179.80</ele>
        <time>2013-04-16T17:39:45Z</time>
      </trkpt>
      <trkpt lat="41.538224000" lon="1.860905000">
        <ele>179.70</ele>
        <time>2013-04-16T17:39:50Z</time>
      </trkpt>
      <trkpt lat="41.538259000" lon="1.860693000">
        <ele>180.40</ele>
        <time>2013-04-16T17:39:55Z</time>
      </trkpt>
      <trkpt lat="41.538411000" lon="1.860547000">
        <ele>180.90</ele>
        <time>2013-04-16T17:40:00Z</time>
      </trkpt>
      <trkpt lat="41.538562000" lon="1.860399000">
        <ele>181.90</ele>
        <time>2013-04-16T17:40:05Z</time>
      </trkpt>
      <trkpt lat="41.538737000" lon="1.860229000">
        <ele>182.20</ele>
        <time>2013-04-16T17:40:11Z</time>
      </trkpt>
      <trkpt lat="41.538905000" lon="1.860070000">
        <ele>182.90</ele>
        <time>2013-04-16T17:40:17Z</time>
      </trkpt>
      <trkpt lat="41.539065000" lon="1.859907000">
        <ele>183.60</ele>
        <time>2013-04-16T17:40:23Z</time>
      </trkpt>
      <trkpt lat="41.539227000" lon="1.859748000">
        <ele>184.60</ele>
        <time>2013-04-16T17:40:29Z</time>
      </trkpt>
      <trkpt lat="41.539386000" lon="1.859600000">
        <ele>185.10</ele>
        <time>2013-04-16T17:40:35Z</time>
      </trkpt>
      <trkpt lat="41.539569000" lon="1.859474000">
        <ele>185.60</ele>
        <time>2013-04-16T17:40:41Z</time>
      </trkpt>
      <trkpt lat="41.539756000" lon="1.859381000">
        <ele>186.10</ele>
        <time>2013-04-16T17:40:47Z</time>
      </trkpt>
      <trkpt lat="41.539922000" lon="1.859222000">
        <ele>186.80</ele>
        <time>2013-04-16T17:40:53Z</time>
      </trkpt>
      <trkpt lat="41.540066000" lon="1.859043000">
        <ele>187.60</ele>
        <time>2013-04-16T17:40:59Z</time>
      </trkpt>
      <trkpt lat="41.540212000" lon="1.858855000">
        <ele>188.40</ele>
        <time>2013-04-16T17:41:05Z</time>
      </trkpt>
      <trkpt lat="41.540361000" lon="1.858682000">
        <ele>189.00</ele>
        <time>2013-04-16T17:41:11Z</time>
      </trkpt>
      <trkpt lat="41.540516000" lon="1.858522000">
        <ele>189.60</ele>
        <time>2013-04-16T17:41:17Z</time>
      </trkpt>
      <trkpt lat="41.540668000" lon="1.858368000">
        <ele>190.20</ele>
        <time>2013-04-16T17:42:34Z</time>
      </trkpt>
      <trkpt lat="41.540837000" lon="1.858223000">
        <ele>190.50</ele>
        <time>2013-04-16T17:42:42Z</time>
      </trkpt>
      <trkpt lat="41.540989000" lon="1.858075000">
        <ele>191.10</ele>
        <time>2013-04-16T17:42:48Z</time>
      </trkpt>
      <trkpt lat="41.541138000" lon="1.857913000">
        <ele>191.70</ele>
        <time>2013-04-16T17:42:54Z</time>
      </trkpt>
      <trkpt lat="41.541275000" lon="1.857729000">
        <ele>192.40</ele>
        <time>2013-04-16T17:43:00Z</time>
      </trkpt>
      <trkpt lat="41.541422000" lon="1.857543000">
        <ele>193.40</ele>
        <time>2013-04-16T17:43:06Z</time>
      </trkpt>
      <trkpt lat="41.541564000" lon="1.857363000">
        <ele>194.00</ele>
        <time>2013-04-16T17:43:12Z</time>
      </trkpt>
      <trkpt lat="41.541713000" lon="1.857187000">
        <ele>195.40</ele>
        <time>2013-04-16T17:43:18Z</time>
      </trkpt>
      <trkpt lat="41.541868000" lon="1.857063000">
        <ele>195.70</ele>
        <time>2013-04-16T17:43:24Z</time>
      </trkpt>
      <trkpt lat="41.542025000" lon="1.856894000">
        <ele>196.30</ele>
        <time>2013-04-16T17:43:30Z</time>
      </trkpt>
      <trkpt lat="41.542191000" lon="1.856743000">
        <ele>196.80</ele>
        <time>2013-04-16T17:43:36Z</time>
      </trkpt>
      <trkpt lat="41.542366000" lon="1.856591000">
        <ele>197.40</ele>
        <time>2013-04-16T17:43:42Z</time>
      </trkpt>
      <trkpt lat="41.542509000" lon="1.856415000">
        <ele>198.20</ele>
        <time>2013-04-16T17:43:48Z</time>
      </trkpt>
      <trkpt lat="41.542647000" lon="1.856212000">
        <ele>198.50</ele>
        <time>2013-04-16T17:43:54Z</time>
      </trkpt>
      <trkpt lat="41.542832000" lon="1.856066000">
        <ele>199.30</ele>
        <time>2013-04-16T17:44:00Z</time>
      </trkpt>
      <trkpt lat="41.543018000" lon="1.855939000">
        <ele>200.00</ele>
        <time>2013-04-16T17:44:06Z</time>
      </trkpt>
      <trkpt lat="41.543208000" lon="1.855814000">
        <ele>201.00</ele>
        <time>2013-04-16T17:44:12Z</time>
      </trkpt>
      <trkpt lat="41.543366000" lon="1.855688000">
        <ele>201.50</ele>
        <time>2013-04-16T17:44:17Z</time>
      </trkpt>
      <trkpt lat="41.543541000" lon="1.855567000">
        <ele>202.20</ele>
        <time>2013-04-16T17:44:23Z</time>
      </trkpt>
      <trkpt lat="41.543714000" lon="1.855434000">
        <ele>203.10</ele>
        <time>2013-04-16T17:44:29Z</time>
      </trkpt>
      <trkpt lat="41.543899000" lon="1.855295000">
        <ele>203.70</ele>
        <time>2013-04-16T17:44:35Z</time>
      </trkpt>
      <trkpt lat="41.544067000" lon="1.855128000">
        <ele>204.90</ele>
        <time>2013-04-16T17:44:41Z</time>
      </trkpt>
      <trkpt lat="41.544238000" lon="1.854998000">
        <ele>207.50</ele>
        <time>2013-04-16T17:44:47Z</time>
      </trkpt>
      <trkpt lat="41.544416000" lon="1.854908000">
        <ele>209.80</ele>
        <time>2013-04-16T17:44:54Z</time>
      </trkpt>
      <trkpt lat="41.544389000" lon="1.854672000">
        <ele>210.50</ele>
        <time>2013-04-16T17:45:02Z</time>
      </trkpt>
      <trkpt lat="41.544296000" lon="1.854456000">
        <ele>210.30</ele>
        <time>2013-04-16T17:45:11Z</time>
      </trkpt>
      <trkpt lat="41.544204000" lon="1.854260000">
        <ele>210.10</ele>
        <time>2013-04-16T17:45:24Z</time>
      </trkpt>
      <trkpt lat="41.544152000" lon="1.854056000">
        <ele>207.50</ele>
        <time>2013-04-16T17:45:36Z</time>
      </trkpt>
      <trkpt lat="41.544260000" lon="1.853854000">
        <ele>206.40</ele>
        <time>2013-04-16T17:45:41Z</time>
      </trkpt>
      <trkpt lat="41.544422000" lon="1.853698000">
        <ele>204.30</ele>
        <time>2013-04-16T17:45:45Z</time>
      </trkpt>
      <trkpt lat="41.544561000" lon="1.853531000">
        <ele>204.90</ele>
        <time>2013-04-16T17:45:49Z</time>
      </trkpt>
      <trkpt lat="41.544713000" lon="1.853366000">
        <ele>204.80</ele>
        <time>2013-04-16T17:45:54Z</time>
      </trkpt>
      <trkpt lat="41.544833000" lon="1.853191000">
        <ele>205.40</ele>
        <time>2013-04-16T17:45:59Z</time>
      </trkpt>
      <trkpt lat="41.544938000" lon="1.852980000">
        <ele>204.40</ele>
        <time>2013-04-16T17:46:04Z</time>
      </trkpt>
      <trkpt lat="41.545074000" lon="1.852771000">
        <ele>200.90</ele>
        <time>2013-04-16T17:46:09Z</time>
      </trkpt>
      <trkpt lat="41.545223000" lon="1.852576000">
        <ele>198.00</ele>
        <time>2013-04-16T17:46:13Z</time>
      </trkpt>
      <trkpt lat="41.545324000" lon="1.852368000">
        <ele>196.40</ele>
        <time>2013-04-16T17:46:17Z</time>
      </trkpt>
      <trkpt lat="41.545171000" lon="1.852160000">
        <ele>194.40</ele>
        <time>2013-04-16T17:46:22Z</time>
      </trkpt>
      <trkpt lat="41.544986000" lon="1.851976000">
        <ele>192.20</ele>
        <time>2013-04-16T17:46:26Z</time>
      </trkpt>
      <trkpt lat="41.544967000" lon="1.851704000">
        <ele>190.80</ele>
        <time>2013-04-16T17:46:30Z</time>
      </trkpt>
      <trkpt lat="41.545084000" lon="1.851512000">
        <ele>189.70</ele>
        <time>2013-04-16T17:46:33Z</time>
      </trkpt>
      <trkpt lat="41.545261000" lon="1.851404000">
        <ele>187.80</ele>
        <time>2013-04-16T17:46:36Z</time>
      </trkpt>
      <trkpt lat="41.545388000" lon="1.851240000">
        <ele>188.10</ele>
        <time>2013-04-16T17:46:40Z</time>
      </trkpt>
      <trkpt lat="41.545208000" lon="1.851124000">
        <ele>188.60</ele>
        <time>2013-04-16T17:46:45Z</time>
      </trkpt>
      <trkpt lat="41.545063000" lon="1.850964000">
        <ele>189.10</ele>
        <time>2013-04-16T17:46:50Z</time>
      </trkpt>
      <trkpt lat="41.545085000" lon="1.850712000">
        <ele>190.00</ele>
        <time>2013-04-16T17:46:55Z</time>
      </trkpt>
      <trkpt lat="41.545146000" lon="1.850448000">
        <ele>187.70</ele>
        <time>2013-04-16T17:46:59Z</time>
      </trkpt>
      <trkpt lat="41.545272000" lon="1.850186000">
        <ele>185.70</ele>
        <time>2013-04-16T17:47:03Z</time>
      </trkpt>
      <trkpt lat="41.545385000" lon="1.849999000">
        <ele>184.30</ele>
        <time>2013-04-16T17:47:07Z</time>
      </trkpt>
      <trkpt lat="41.545190000" lon="1.850008000">
        <ele>180.00</ele>
        <time>2013-04-16T17:47:12Z</time>
      </trkpt>
      <trkpt lat="41.544996000" lon="1.850070000">
        <ele>177.10</ele>
        <time>2013-04-16T17:47:15Z</time>
      </trkpt>
      <trkpt lat="41.544785000" lon="1.850110000">
        <ele>175.10</ele>
        <time>2013-04-16T17:47:18Z</time>
      </trkpt>
      <trkpt lat="41.544589000" lon="1.850133000">
        <ele>172.70</ele>
        <time>2013-04-16T17:47:21Z</time>
      </trkpt>
      <trkpt lat="41.544441000" lon="1.850020000">
        <ele>171.90</ele>
        <time>2013-04-16T17:47:26Z</time>
      </trkpt>
      <trkpt lat="41.544593000" lon="1.849851000">
        <ele>172.40</ele>
        <time>2013-04-16T17:47:32Z</time>
      </trkpt>
      <trkpt lat="41.544660000" lon="1.849622000">
        <ele>173.50</ele>
        <time>2013-04-16T17:47:38Z</time>
      </trkpt>
      <trkpt lat="41.544506000" lon="1.849684000">
        <ele>175.50</ele>
        <time>2013-04-16T17:47:45Z</time>
      </trkpt>
      <trkpt lat="41.544349000" lon="1.849834000">
        <ele>177.00</ele>
        <time>2013-04-16T17:47:52Z</time>
      </trkpt>
      <trkpt lat="41.544239000" lon="1.850037000">
        <ele>179.30</ele>
        <time>2013-04-16T17:48:00Z</time>
      </trkpt>
      <trkpt lat="41.544210000" lon="1.850266000">
        <ele>183.20</ele>
        <time>2013-04-16T17:48:10Z</time>
      </trkpt>
      <trkpt lat="41.544278000" lon="1.850527000">
        <ele>186.00</ele>
        <time>2013-04-16T17:48:20Z</time>
      </trkpt>
      <trkpt lat="41.544182000" lon="1.850399000">
        <ele>188.60</ele>
        <time>2013-04-16T17:48:32Z</time>
      </trkpt>
      <trkpt lat="41.544129000" lon="1.850178000">
        <ele>191.40</ele>
        <time>2013-04-16T17:48:43Z</time>
      </trkpt>
      <trkpt lat="41.544163000" lon="1.849941000">
        <ele>194.70</ele>
        <time>2013-04-16T17:48:56Z</time>
      </trkpt>
      <trkpt lat="41.544140000" lon="1.849700000">
        <ele>196.00</ele>
        <time>2013-04-16T17:49:07Z</time>
      </trkpt>
      <trkpt lat="41.544165000" lon="1.849448000">
        <ele>198.40</ele>
        <time>2013-04-16T17:49:17Z</time>
      </trkpt>
      <trkpt lat="41.544144000" lon="1.849184000">
        <ele>200.60</ele>
        <time>2013-04-16T17:49:27Z</time>
      </trkpt>
      <trkpt lat="41.544101000" lon="1.848859000">
        <ele>202.30</ele>
        <time>2013-04-16T17:49:39Z</time>
      </trkpt>
      <trkpt lat="41.544083000" lon="1.848588000">
        <ele>205.30</ele>
        <time>2013-04-16T17:49:48Z</time>
      </trkpt>
      <trkpt lat="41.544065000" lon="1.848318000">
        <ele>207.20</ele>
        <time>2013-04-16T17:49:57Z</time>
      </trkpt>
      <trkpt lat="41.544074000" lon="1.848064000">
        <ele>209.70</ele>
        <time>2013-04-16T17:50:06Z</time>
      </trkpt>
      <trkpt lat="41.544097000" lon="1.847802000">
        <ele>212.40</ele>
        <time>2013-04-16T17:50:15Z</time>
      </trkpt>
      <trkpt lat="41.544094000" lon="1.847551000">
        <ele>214.10</ele>
        <time>2013-04-16T17:50:23Z</time>
      </trkpt>
      <trkpt lat="41.544125000" lon="1.847298000">
        <ele>216.10</ele>
        <time>2013-04-16T17:50:32Z</time>
      </trkpt>
      <trkpt lat="41.544184000" lon="1.847056000">
        <ele>218.70</ele>
        <time>2013-04-16T17:50:42Z</time>
      </trkpt>
      <trkpt lat="41.544315000" lon="1.846886000">
        <ele>218.70</ele>
        <time>2013-04-16T17:52:34Z</time>
      </trkpt>
      <trkpt lat="41.544350000" lon="1.846609000">
        <ele>218.50</ele>
        <time>2013-04-16T17:52:40Z</time>
      </trkpt>
      <trkpt lat="41.544309000" lon="1.846365000">
        <ele>218.80</ele>
        <time>2013-04-16T17:52:45Z</time>
      </trkpt>
      <trkpt lat="41.544260000" lon="1.846107000">
        <ele>220.10</ele>
        <time>2013-04-16T17:52:51Z</time>
      </trkpt>
      <trkpt lat="41.544220000" lon="1.845851000">
        <ele>221.30</ele>
        <time>2013-04-16T17:52:57Z</time>
      </trkpt>
      <trkpt lat="41.544282000" lon="1.845606000">
        <ele>223.70</ele>
        <time>2013-04-16T17:53:03Z</time>
      </trkpt>
      <trkpt lat="41.544342000" lon="1.845359000">
        <ele>226.50</ele>
        <time>2013-04-16T17:53:09Z</time>
      </trkpt>
      <trkpt lat="41.544274000" lon="1.845109000">
        <ele>227.90</ele>
        <time>2013-04-16T17:53:16Z</time>
      </trkpt>
      <trkpt lat="41.544167000" lon="1.844900000">
        <ele>228.00</ele>
        <time>2013-04-16T17:53:24Z</time>
      </trkpt>
      <trkpt lat="41.544195000" lon="1.844653000">
        <ele>228.40</ele>
        <time>2013-04-16T17:53:31Z</time>
      </trkpt>
      <trkpt lat="41.544271000" lon="1.844431000">
        <ele>230.10</ele>
        <time>2013-04-16T17:53:38Z</time>
      </trkpt>
      <trkpt lat="41.544345000" lon="1.844194000">
        <ele>232.00</ele>
        <time>2013-04-16T17:53:46Z</time>
      </trkpt>
      <trkpt lat="41.544216000" lon="1.844047000">
        <ele>233.60</ele>
        <time>2013-04-16T17:53:54Z</time>
      </trkpt>
      <trkpt lat="41.544006000" lon="1.844032000">
        <ele>232.50</ele>
        <time>2013-04-16T17:54:00Z</time>
      </trkpt>
      <trkpt lat="41.543837000" lon="1.843915000">
        <ele>232.90</ele>
        <time>2013-04-16T17:54:06Z</time>
      </trkpt>
      <trkpt lat="41.543668000" lon="1.843822000">
        <ele>234.70</ele>
        <time>2013-04-16T17:54:13Z</time>
      </trkpt>
      <trkpt lat="41.543551000" lon="1.843637000">
        <ele>234.80</ele>
        <time>2013-04-16T17:54:21Z</time>
      </trkpt>
      <trkpt lat="41.543488000" lon="1.843614000">
        <ele>235.60</ele>
        <time>2013-04-16T17:54:51Z</time>
      </trkpt>
      <trkpt lat="41.543545000" lon="1.843780000">
        <ele>236.30</ele>
        <time>2013-04-16T17:55:13Z</time>
      </trkpt>
      <trkpt lat="41.543363000" lon="1.843803000">
        <ele>236.60</ele>
        <time>2013-04-16T17:56:45Z</time>
      </trkpt>
      <trkpt lat="41.543160000" lon="1.843713000">
        <ele>234.70</ele>
        <time>2013-04-16T17:56:51Z</time>
      </trkpt>
      <trkpt lat="41.543049000" lon="1.843481000">
        <ele>233.20</ele>
        <time>2013-04-16T17:56:56Z</time>
      </trkpt>
      <trkpt lat="41.542904000" lon="1.843351000">
        <ele>234.90</ele>
        <time>2013-04-16T17:57:03Z</time>
      </trkpt>
      <trkpt lat="41.542879000" lon="1.843114000">
        <ele>235.90</ele>
        <time>2013-04-16T17:57:10Z</time>
      </trkpt>
      <trkpt lat="41.542860000" lon="1.842863000">
        <ele>238.10</ele>
        <time>2013-04-16T17:57:17Z</time>
      </trkpt>
      <trkpt lat="41.542835000" lon="1.842630000">
        <ele>240.10</ele>
        <time>2013-04-16T17:57:25Z</time>
      </trkpt>
      <trkpt lat="41.542782000" lon="1.842366000">
        <ele>239.90</ele>
        <time>2013-04-16T17:57:36Z</time>
      </trkpt>
      <trkpt lat="41.542728000" lon="1.842123000">
        <ele>238.80</ele>
        <time>2013-04-16T17:57:41Z</time>
      </trkpt>
      <trkpt lat="41.542682000" lon="1.841876000">
        <ele>239.20</ele>
        <time>2013-04-16T17:57:46Z</time>
      </trkpt>
      <trkpt lat="41.542652000" lon="1.841596000">
        <ele>240.80</ele>
        <time>2013-04-16T17:57:53Z</time>
      </trkpt>
      <trkpt lat="41.542536000" lon="1.841381000">
        <ele>241.80</ele>
        <time>2013-04-16T17:58:02Z</time>
      </trkpt>
      <trkpt lat="41.542512000" lon="1.841143000">
        <ele>242.10</ele>
        <time>2013-04-16T17:58:10Z</time>
      </trkpt>
      <trkpt lat="41.542463000" lon="1.840908000">
        <ele>242.50</ele>
        <time>2013-04-16T17:58:19Z</time>
      </trkpt>
      <trkpt lat="41.542393000" lon="1.840673000">
        <ele>243.00</ele>
        <time>2013-04-16T17:58:27Z</time>
      </trkpt>
      <trkpt lat="41.542316000" lon="1.840421000">
        <ele>244.60</ele>
        <time>2013-04-16T17:58:39Z</time>
      </trkpt>
      <trkpt lat="41.542242000" lon="1.840168000">
        <ele>244.70</ele>
        <time>2013-04-16T17:58:47Z</time>
      </trkpt>
      <trkpt lat="41.542197000" lon="1.839907000">
        <ele>245.70</ele>
        <time>2013-04-16T17:58:54Z</time>
      </trkpt>
      <trkpt lat="41.542235000" lon="1.839638000">
        <ele>246.10</ele>
        <time>2013-04-16T17:59:01Z</time>
      </trkpt>
      <trkpt lat="41.542247000" lon="1.839386000">
        <ele>246.50</ele>
        <time>2013-04-16T17:59:07Z</time>
      </trkpt>
      <trkpt lat="41.542322000" lon="1.839168000">
        <ele>246.50</ele>
        <time>2013-04-16T17:59:13Z</time>
      </trkpt>
      <trkpt lat="41.542412000" lon="1.838959000">
        <ele>246.50</ele>
        <time>2013-04-16T17:59:19Z</time>
      </trkpt>
      <trkpt lat="41.542479000" lon="1.838718000">
        <ele>246.30</ele>
        <time>2013-04-16T17:59:25Z</time>
      </trkpt>
      <trkpt lat="41.542501000" lon="1.838442000">
        <ele>246.30</ele>
        <time>2013-04-16T17:59:31Z</time>
      </trkpt>
      <trkpt lat="41.542562000" lon="1.838185000">
        <ele>246.60</ele>
        <time>2013-04-16T17:59:37Z</time>
      </trkpt>
      <trkpt lat="41.542681000" lon="1.837956000">
        <ele>246.30</ele>
        <time>2013-04-16T17:59:43Z</time>
      </trkpt>
      <trkpt lat="41.542733000" lon="1.837718000">
        <ele>246.60</ele>
        <time>2013-04-16T17:59:49Z</time>
      </trkpt>
      <trkpt lat="41.542705000" lon="1.837483000">
        <ele>247.20</ele>
        <time>2013-04-16T18:01:46Z</time>
      </trkpt>
      <trkpt lat="41.542607000" lon="1.837246000">
        <ele>248.00</ele>
        <time>2013-04-16T18:01:56Z</time>
      </trkpt>
      <trkpt lat="41.542476000" lon="1.837064000">
        <ele>249.40</ele>
        <time>2013-04-16T18:02:05Z</time>
      </trkpt>
      <trkpt lat="41.542453000" lon="1.836821000">
        <ele>250.50</ele>
        <time>2013-04-16T18:02:14Z</time>
      </trkpt>
      <trkpt lat="41.542505000" lon="1.836568000">
        <ele>251.80</ele>
        <time>2013-04-16T18:02:22Z</time>
      </trkpt>
      <trkpt lat="41.542568000" lon="1.836348000">
        <ele>252.20</ele>
        <time>2013-04-16T18:02:29Z</time>
      </trkpt>
      <trkpt lat="41.542653000" lon="1.836123000">
        <ele>253.50</ele>
        <time>2013-04-16T18:02:36Z</time>
      </trkpt>
      <trkpt lat="41.542716000" lon="1.835895000">
        <ele>253.10</ele>
        <time>2013-04-16T18:02:43Z</time>
      </trkpt>
      <trkpt lat="41.542732000" lon="1.835646000">
        <ele>253.30</ele>
        <time>2013-04-16T18:02:49Z</time>
      </trkpt>
      <trkpt lat="41.542733000" lon="1.835397000">
        <ele>254.20</ele>
        <time>2013-04-16T18:02:55Z</time>
      </trkpt>
      <trkpt lat="41.542694000" lon="1.835168000">
        <ele>256.70</ele>
        <time>2013-04-16T18:03:02Z</time>
      </trkpt>
      <trkpt lat="41.542639000" lon="1.834927000">
        <ele>258.30</ele>
        <time>2013-04-16T18:03:11Z</time>
      </trkpt>
      <trkpt lat="41.542630000" lon="1.834678000">
        <ele>260.30</ele>
        <time>2013-04-16T18:03:19Z</time>
      </trkpt>
      <trkpt lat="41.542745000" lon="1.834484000">
        <ele>260.90</ele>
        <time>2013-04-16T18:03:27Z</time>
      </trkpt>
      <trkpt lat="41.542856000" lon="1.834266000">
        <ele>260.80</ele>
        <time>2013-04-16T18:03:35Z</time>
      </trkpt>
      <trkpt lat="41.542901000" lon="1.834024000">
        <ele>260.80</ele>
        <time>2013-04-16T18:03:42Z</time>
      </trkpt>
      <trkpt lat="41.542912000" lon="1.833768000">
        <ele>261.00</ele>
        <time>2013-04-16T18:03:48Z</time>
      </trkpt>
      <trkpt lat="41.542880000" lon="1.833503000">
        <ele>262.30</ele>
        <time>2013-04-16T18:03:55Z</time>
      </trkpt>
      <trkpt lat="41.542824000" lon="1.833251000">
        <ele>263.30</ele>
        <time>2013-04-16T18:04:02Z</time>
      </trkpt>
      <trkpt lat="41.542757000" lon="1.832971000">
        <ele>264.30</ele>
        <time>2013-04-16T18:04:10Z</time>
      </trkpt>
      <trkpt lat="41.542664000" lon="1.832720000">
        <ele>265.80</ele>
        <time>2013-04-16T18:04:17Z</time>
      </trkpt>
      <trkpt lat="41.542556000" lon="1.832474000">
        <ele>266.60</ele>
        <time>2013-04-16T18:04:24Z</time>
      </trkpt>
      <trkpt lat="41.542527000" lon="1.832219000">
        <ele>268.20</ele>
        <time>2013-04-16T18:04:31Z</time>
      </trkpt>
      <trkpt lat="41.542630000" lon="1.832019000">
        <ele>268.60</ele>
        <time>2013-04-16T18:04:38Z</time>
      </trkpt>
      <trkpt lat="41.542649000" lon="1.831748000">
        <ele>268.70</ele>
        <time>2013-04-16T18:04:45Z</time>
      </trkpt>
      <trkpt lat="41.542598000" lon="1.831503000">
        <ele>268.70</ele>
        <time>2013-04-16T18:04:51Z</time>
      </trkpt>
      <trkpt lat="41.542634000" lon="1.831261000">
        <ele>269.10</ele>
        <time>2013-04-16T18:04:57Z</time>
      </trkpt>
      <trkpt lat="41.542807000" lon="1.831099000">
        <ele>269.10</ele>
        <time>2013-04-16T18:05:04Z</time>
      </trkpt>
      <trkpt lat="41.542954000" lon="1.830864000">
        <ele>268.30</ele>
        <time>2013-04-16T18:05:10Z</time>
      </trkpt>
      <trkpt lat="41.543027000" lon="1.830637000">
        <ele>267.40</ele>
        <time>2013-04-16T18:05:14Z</time>
      </trkpt>
      <trkpt lat="41.543083000" lon="1.830350000">
        <ele>268.30</ele>
        <time>2013-04-16T18:05:19Z</time>
      </trkpt>
      <trkpt lat="41.543050000" lon="1.830079000">
        <ele>269.30</ele>
        <time>2013-04-16T18:05:25Z</time>
      </trkpt>
      <trkpt lat="41.542884000" lon="1.829903000">
        <ele>269.20</ele>
        <time>2013-04-16T18:05:31Z</time>
      </trkpt>
      <trkpt lat="41.542882000" lon="1.829901000">
        <ele>269.90</ele>
        <time>2013-04-16T18:05:48Z</time>
      </trkpt>
      <trkpt lat="41.543042000" lon="1.830057000">
        <ele>270.10</ele>
        <time>2013-04-16T18:05:57Z</time>
      </trkpt>
      <trkpt lat="41.543226000" lon="1.830024000">
        <ele>270.40</ele>
        <time>2013-04-16T18:06:04Z</time>
      </trkpt>
      <trkpt lat="41.543364000" lon="1.829831000">
        <ele>270.70</ele>
        <time>2013-04-16T18:06:11Z</time>
      </trkpt>
      <trkpt lat="41.543467000" lon="1.829631000">
        <ele>271.60</ele>
        <time>2013-04-16T18:06:17Z</time>
      </trkpt>
      <trkpt lat="41.543578000" lon="1.829399000">
        <ele>272.70</ele>
        <time>2013-04-16T18:06:24Z</time>
      </trkpt>
      <trkpt lat="41.543687000" lon="1.829157000">
        <ele>273.70</ele>
        <time>2013-04-16T18:06:31Z</time>
      </trkpt>
      <trkpt lat="41.543711000" lon="1.828925000">
        <ele>275.30</ele>
        <time>2013-04-16T18:06:39Z</time>
      </trkpt>
      <trkpt lat="41.543687000" lon="1.828660000">
        <ele>276.10</ele>
        <time>2013-04-16T18:06:47Z</time>
      </trkpt>
      <trkpt lat="41.543712000" lon="1.828414000">
        <ele>276.60</ele>
        <time>2013-04-16T18:06:54Z</time>
      </trkpt>
      <trkpt lat="41.543648000" lon="1.828181000">
        <ele>277.50</ele>
        <time>2013-04-16T18:07:02Z</time>
      </trkpt>
      <trkpt lat="41.543584000" lon="1.827963000">
        <ele>277.20</ele>
        <time>2013-04-16T18:07:10Z</time>
      </trkpt>
      <trkpt lat="41.543736000" lon="1.827878000">
        <ele>275.50</ele>
        <time>2013-04-16T18:07:18Z</time>
      </trkpt>
      <trkpt lat="41.543919000" lon="1.827937000">
        <ele>272.50</ele>
        <time>2013-04-16T18:07:25Z</time>
      </trkpt>
      <trkpt lat="41.544122000" lon="1.827964000">
        <ele>269.20</ele>
        <time>2013-04-16T18:07:32Z</time>
      </trkpt>
      <trkpt lat="41.544312000" lon="1.828029000">
        <ele>267.00</ele>
        <time>2013-04-16T18:07:39Z</time>
      </trkpt>
      <trkpt lat="41.544508000" lon="1.828082000">
        <ele>264.80</ele>
        <time>2013-04-16T18:07:46Z</time>
      </trkpt>
      <trkpt lat="41.544697000" lon="1.828134000">
        <ele>262.20</ele>
        <time>2013-04-16T18:07:52Z</time>
      </trkpt>
      <trkpt lat="41.544898000" lon="1.828199000">
        <ele>259.40</ele>
        <time>2013-04-16T18:07:58Z</time>
      </trkpt>
      <trkpt lat="41.545064000" lon="1.828141000">
        <ele>259.10</ele>
        <time>2013-04-16T18:08:04Z</time>
      </trkpt>
      <trkpt lat="41.545124000" lon="1.827920000">
        <ele>261.10</ele>
        <time>2013-04-16T18:08:11Z</time>
      </trkpt>
      <trkpt lat="41.545125000" lon="1.827658000">
        <ele>262.60</ele>
        <time>2013-04-16T18:08:19Z</time>
      </trkpt>
      <trkpt lat="41.545203000" lon="1.827406000">
        <ele>262.60</ele>
        <time>2013-04-16T18:08:27Z</time>
      </trkpt>
      <trkpt lat="41.545361000" lon="1.827252000">
        <ele>261.80</ele>
        <time>2013-04-16T18:08:32Z</time>
      </trkpt>
      <trkpt lat="41.545549000" lon="1.827157000">
        <ele>265.40</ele>
        <time>2013-04-16T18:08:39Z</time>
      </trkpt>
      <trkpt lat="41.545736000" lon="1.827149000">
        <ele>268.00</ele>
        <time>2013-04-16T18:08:49Z</time>
      </trkpt>
      <trkpt lat="41.545844000" lon="1.826935000">
        <ele>270.50</ele>
        <time>2013-04-16T18:09:00Z</time>
      </trkpt>
      <trkpt lat="41.546007000" lon="1.826759000">
        <ele>270.20</ele>
        <time>2013-04-16T18:09:09Z</time>
      </trkpt>
      <trkpt lat="41.546061000" lon="1.826510000">
        <ele>270.70</ele>
        <time>2013-04-16T18:09:17Z</time>
      </trkpt>
      <trkpt lat="41.545941000" lon="1.826296000">
        <ele>274.10</ele>
        <time>2013-04-16T18:09:25Z</time>
      </trkpt>
      <trkpt lat="41.545820000" lon="1.826115000">
        <ele>276.70</ele>
        <time>2013-04-16T18:09:34Z</time>
      </trkpt>
      <trkpt lat="41.545765000" lon="1.825900000">
        <ele>277.70</ele>
        <time>2013-04-16T18:09:43Z</time>
      </trkpt>
      <trkpt lat="41.545748000" lon="1.825654000">
        <ele>278.90</ele>
        <time>2013-04-16T18:09:52Z</time>
      </trkpt>
      <trkpt lat="41.545846000" lon="1.825439000">
        <ele>278.30</ele>
        <time>2013-04-16T18:10:00Z</time>
      </trkpt>
      <trkpt lat="41.546012000" lon="1.825303000">
        <ele>277.50</ele>
        <time>2013-04-16T18:10:06Z</time>
      </trkpt>
      <trkpt lat="41.546201000" lon="1.825347000">
        <ele>278.00</ele>
        <time>2013-04-16T18:10:13Z</time>
      </trkpt>
      <trkpt lat="41.546387000" lon="1.825384000">
        <ele>279.30</ele>
        <time>2013-04-16T18:10:21Z</time>
      </trkpt>
      <trkpt lat="41.546494000" lon="1.825220000">
        <ele>281.90</ele>
        <time>2013-04-16T18:10:31Z</time>
      </trkpt>
      <trkpt lat="41.546487000" lon="1.824980000">
        <ele>285.10</ele>
        <time>2013-04-16T18:10:40Z</time>
      </trkpt>
      <trkpt lat="41.546453000" lon="1.824731000">
        <ele>287.10</ele>
        <time>2013-04-16T18:10:50Z</time>
      </trkpt>
      <trkpt lat="41.546372000" lon="1.824520000">
        <ele>287.30</ele>
        <time>2013-04-16T18:11:01Z</time>
      </trkpt>
      <trkpt lat="41.546220000" lon="1.824354000">
        <ele>287.30</ele>
        <time>2013-04-16T18:11:09Z</time>
      </trkpt>
      <trkpt lat="41.546036000" lon="1.824258000">
        <ele>288.60</ele>
        <time>2013-04-16T18:11:17Z</time>
      </trkpt>
      <trkpt lat="41.545836000" lon="1.824227000">
        <ele>292.00</ele>
        <time>2013-04-16T18:11:26Z</time>
      </trkpt>
      <trkpt lat="41.545636000" lon="1.824186000">
        <ele>295.30</ele>
        <time>2013-04-16T18:11:35Z</time>
      </trkpt>
      <trkpt lat="41.545470000" lon="1.824099000">
        <ele>296.00</ele>
        <time>2013-04-16T18:11:49Z</time>
      </trkpt>
      <trkpt lat="41.545335000" lon="1.823910000">
        <ele>292.30</ele>
        <time>2013-04-16T18:11:56Z</time>
      </trkpt>
      <trkpt lat="41.545282000" lon="1.823627000">
        <ele>290.00</ele>
        <time>2013-04-16T18:12:01Z</time>
      </trkpt>
      <trkpt lat="41.545192000" lon="1.823401000">
        <ele>289.20</ele>
        <time>2013-04-16T18:12:05Z</time>
      </trkpt>
      <trkpt lat="41.545153000" lon="1.823118000">
        <ele>288.10</ele>
        <time>2013-04-16T18:12:09Z</time>
      </trkpt>
      <trkpt lat="41.545162000" lon="1.822817000">
        <ele>286.90</ele>
        <time>2013-04-16T18:12:13Z</time>
      </trkpt>
      <trkpt lat="41.545211000" lon="1.822576000">
        <ele>284.80</ele>
        <time>2013-04-16T18:12:17Z</time>
      </trkpt>
      <trkpt lat="41.545294000" lon="1.822296000">
        <ele>284.90</ele>
        <time>2013-04-16T18:12:21Z</time>
      </trkpt>
      <trkpt lat="41.545426000" lon="1.822110000">
        <ele>286.90</ele>
        <time>2013-04-16T18:12:26Z</time>
      </trkpt>
      <trkpt lat="41.545611000" lon="1.822090000">
        <ele>290.50</ele>
        <time>2013-04-16T18:12:34Z</time>
      </trkpt>
      <trkpt lat="41.545804000" lon="1.822097000">
        <ele>293.10</ele>
        <time>2013-04-16T18:12:43Z</time>
      </trkpt>
      <trkpt lat="41.545980000" lon="1.822009000">
        <ele>294.80</ele>
        <time>2013-04-16T18:12:52Z</time>
      </trkpt>
      <trkpt lat="41.546125000" lon="1.821826000">
        <ele>296.60</ele>
        <time>2013-04-16T18:13:01Z</time>
      </trkpt>
      <trkpt lat="41.546294000" lon="1.821781000">
        <ele>299.80</ele>
        <time>2013-04-16T18:13:12Z</time>
      </trkpt>
      <trkpt lat="41.546480000" lon="1.821837000">
        <ele>303.20</ele>
        <time>2013-04-16T18:13:34Z</time>
      </trkpt>
      <trkpt lat="41.546649000" lon="1.821914000">
        <ele>306.90</ele>
        <time>2013-04-16T18:13:47Z</time>
      </trkpt>
      <trkpt lat="41.546835000" lon="1.821943000">
        <ele>311.00</ele>
        <time>2013-04-16T18:14:01Z</time>
      </trkpt>
      <trkpt lat="41.547024000" lon="1.821952000">
        <ele>314.20</ele>
        <time>2013-04-16T18:14:15Z</time>
      </trkpt>
      <trkpt lat="41.547213000" lon="1.821978000">
        <ele>318.60</ele>
        <time>2013-04-16T18:14:31Z</time>
      </trkpt>
      <trkpt lat="41.547389000" lon="1.821893000">
        <ele>318.80</ele>
        <time>2013-04-16T18:14:45Z</time>
      </trkpt>
      <trkpt lat="41.547472000" lon="1.821661000">
        <ele>320.90</ele>
        <time>2013-04-16T18:14:56Z</time>
      </trkpt>
      <trkpt lat="41.547566000" lon="1.821446000">
        <ele>324.70</ele>
        <time>2013-04-16T18:15:09Z</time>
      </trkpt>
      <trkpt lat="41.547699000" lon="1.821272000">
        <ele>326.70</ele>
        <time>2013-04-16T18:15:21Z</time>
      </trkpt>
      <trkpt lat="41.547818000" lon="1.821080000">
        <ele>328.70</ele>
        <time>2013-04-16T18:15:33Z</time>
      </trkpt>
      <trkpt lat="41.547943000" lon="1.820894000">
        <ele>331.50</ele>
        <time>2013-04-16T18:15:46Z</time>
      </trkpt>
      <trkpt lat="41.547976000" lon="1.820718000">
        <ele>334.90</ele>
        <time>2013-04-16T18:16:00Z</time>
      </trkpt>
      <trkpt lat="41.547801000" lon="1.820761000">
        <ele>337.90</ele>
        <time>2013-04-16T18:16:13Z</time>
      </trkpt>
      <trkpt lat="41.547627000" lon="1.820682000">
        <ele>341.20</ele>
        <time>2013-04-16T18:16:28Z</time>
      </trkpt>
      <trkpt lat="41.547731000" lon="1.820498000">
        <ele>343.10</ele>
        <time>2013-04-16T18:16:41Z</time>
      </trkpt>
      <trkpt lat="41.547776000" lon="1.820256000">
        <ele>346.60</ele>
        <time>2013-04-16T18:16:54Z</time>
      </trkpt>
      <trkpt lat="41.547811000" lon="1.820009000">
        <ele>349.50</ele>
        <time>2013-04-16T18:17:07Z</time>
      </trkpt>
      <trkpt lat="41.547940000" lon="1.819810000">
        <ele>351.10</ele>
        <time>2013-04-16T18:17:19Z</time>
      </trkpt>
      <trkpt lat="41.548075000" lon="1.819640000">
        <ele>352.70</ele>
        <time>2013-04-16T18:17:32Z</time>
      </trkpt>
      <trkpt lat="41.548212000" lon="1.819476000">
        <ele>353.30</ele>
        <time>2013-04-16T18:17:46Z</time>
      </trkpt>
      <trkpt lat="41.548351000" lon="1.819333000">
        <ele>354.20</ele>
        <time>2013-04-16T18:18:44Z</time>
      </trkpt>
      <trkpt lat="41.548461000" lon="1.819112000">
        <ele>355.80</ele>
        <time>2013-04-16T18:18:56Z</time>
      </trkpt>
      <trkpt lat="41.548571000" lon="1.818903000">
        <ele>357.80</ele>
        <time>2013-04-16T18:19:07Z</time>
      </trkpt>
      <trkpt lat="41.548714000" lon="1.818717000">
        <ele>357.60</ele>
        <time>2013-04-16T18:19:17Z</time>
      </trkpt>
      <trkpt lat="41.548874000" lon="1.818542000">
        <ele>358.00</ele>
        <time>2013-04-16T18:19:27Z</time>
      </trkpt>
      <trkpt lat="41.549030000" lon="1.818367000">
        <ele>358.80</ele>
        <time>2013-04-16T18:19:35Z</time>
      </trkpt>
      <trkpt lat="41.549182000" lon="1.818227000">
        <ele>360.70</ele>
        <time>2013-04-16T18:19:42Z</time>
      </trkpt>
      <trkpt lat="41.549354000" lon="1.818150000">
        <ele>360.90</ele>
        <time>2013-04-16T18:19:49Z</time>
      </trkpt>
      <trkpt lat="41.549548000" lon="1.818124000">
        <ele>361.30</ele>
        <time>2013-04-16T18:19:56Z</time>
      </trkpt>
      <trkpt lat="41.549730000" lon="1.818086000">
        <ele>361.60</ele>
        <time>2013-04-16T18:20:03Z</time>
      </trkpt>
      <trkpt lat="41.549911000" lon="1.817965000">
        <ele>362.00</ele>
        <time>2013-04-16T18:20:11Z</time>
      </trkpt>
      <trkpt lat="41.550055000" lon="1.817780000">
        <ele>363.50</ele>
        <time>2013-04-16T18:20:19Z</time>
      </trkpt>
      <trkpt lat="41.550099000" lon="1.817551000">
        <ele>364.90</ele>
        <time>2013-04-16T18:20:28Z</time>
      </trkpt>
      <trkpt lat="41.550162000" lon="1.817330000">
        <ele>367.20</ele>
        <time>2013-04-16T18:20:38Z</time>
      </trkpt>
      <trkpt lat="41.550323000" lon="1.817442000">
        <ele>368.70</ele>
        <time>2013-04-16T18:20:49Z</time>
      </trkpt>
      <trkpt lat="41.550507000" lon="1.817491000">
        <ele>369.90</ele>
        <time>2013-04-16T18:20:59Z</time>
      </trkpt>
      <trkpt lat="41.550676000" lon="1.817412000">
        <ele>370.70</ele>
        <time>2013-04-16T18:21:08Z</time>
      </trkpt>
      <trkpt lat="41.550777000" lon="1.817199000">
        <ele>371.90</ele>
        <time>2013-04-16T18:21:17Z</time>
      </trkpt>
      <trkpt lat="41.550953000" lon="1.817145000">
        <ele>372.80</ele>
        <time>2013-04-16T18:21:26Z</time>
      </trkpt>
      <trkpt lat="41.551136000" lon="1.817248000">
        <ele>373.60</ele>
        <time>2013-04-16T18:21:35Z</time>
      </trkpt>
      <trkpt lat="41.551302000" lon="1.817358000">
        <ele>374.90</ele>
        <time>2013-04-16T18:21:43Z</time>
      </trkpt>
      <trkpt lat="41.551464000" lon="1.817474000">
        <ele>375.00</ele>
        <time>2013-04-16T18:21:51Z</time>
      </trkpt>
      <trkpt lat="41.551638000" lon="1.817601000">
        <ele>375.20</ele>
        <time>2013-04-16T18:21:58Z</time>
      </trkpt>
      <trkpt lat="41.551804000" lon="1.817729000">
        <ele>375.60</ele>
        <time>2013-04-16T18:22:05Z</time>
      </trkpt>
      <trkpt lat="41.551969000" lon="1.817855000">
        <ele>377.00</ele>
        <time>2013-04-16T18:22:12Z</time>
      </trkpt>
      <trkpt lat="41.552147000" lon="1.817953000">
        <ele>378.50</ele>
        <time>2013-04-16T18:22:20Z</time>
      </trkpt>
      <trkpt lat="41.552326000" lon="1.818041000">
        <ele>382.10</ele>
        <time>2013-04-16T18:22:30Z</time>
      </trkpt>
      <trkpt lat="41.552499000" lon="1.817978000">
        <ele>384.50</ele>
        <time>2013-04-16T18:22:41Z</time>
      </trkpt>
      <trkpt lat="41.552578000" lon="1.817740000">
        <ele>385.30</ele>
        <time>2013-04-16T18:22:52Z</time>
      </trkpt>
      <trkpt lat="41.552623000" lon="1.817504000">
        <ele>386.40</ele>
        <time>2013-04-16T18:23:02Z</time>
      </trkpt>
      <trkpt lat="41.552644000" lon="1.817248000">
        <ele>387.70</ele>
        <time>2013-04-16T18:23:13Z</time>
      </trkpt>
      <trkpt lat="41.552708000" lon="1.817009000">
        <ele>388.70</ele>
        <time>2013-04-16T18:23:24Z</time>
      </trkpt>
      <trkpt lat="41.552841000" lon="1.816884000">
        <ele>389.40</ele>
        <time>2013-04-16T18:23:35Z</time>
      </trkpt>
      <trkpt lat="41.552965000" lon="1.817043000">
        <ele>390.10</ele>
        <time>2013-04-16T18:23:45Z</time>
      </trkpt>
      <trkpt lat="41.552990000" lon="1.817305000">
        <ele>391.00</ele>
        <time>2013-04-16T18:23:55Z</time>
      </trkpt>
      <trkpt lat="41.553057000" lon="1.817532000">
        <ele>392.10</ele>
        <time>2013-04-16T18:24:44Z</time>
      </trkpt>
      <trkpt lat="41.553207000" lon="1.817670000">
        <ele>392.40</ele>
        <time>2013-04-16T18:24:51Z</time>
      </trkpt>
      <trkpt lat="41.553407000" lon="1.817706000">
        <ele>394.00</ele>
        <time>2013-04-16T18:24:59Z</time>
      </trkpt>
      <trkpt lat="41.553604000" lon="1.817747000">
        <ele>394.60</ele>
        <time>2013-04-16T18:25:08Z</time>
      </trkpt>
      <trkpt lat="41.553791000" lon="1.817674000">
        <ele>394.70</ele>
        <time>2013-04-16T18:25:21Z</time>
      </trkpt>
      <trkpt lat="41.553959000" lon="1.817545000">
        <ele>395.10</ele>
        <time>2013-04-16T18:25:32Z</time>
      </trkpt>
      <trkpt lat="41.554083000" lon="1.817336000">
        <ele>395.20</ele>
        <time>2013-04-16T18:25:40Z</time>
      </trkpt>
      <trkpt lat="41.554203000" lon="1.817152000">
        <ele>395.30</ele>
        <time>2013-04-16T18:25:47Z</time>
      </trkpt>
      <trkpt lat="41.554339000" lon="1.816991000">
        <ele>396.50</ele>
        <time>2013-04-16T18:25:54Z</time>
      </trkpt>
      <trkpt lat="41.554477000" lon="1.816799000">
        <ele>396.20</ele>
        <time>2013-04-16T18:26:01Z</time>
      </trkpt>
      <trkpt lat="41.554647000" lon="1.816597000">
        <ele>393.80</ele>
        <time>2013-04-16T18:26:06Z</time>
      </trkpt>
      <trkpt lat="41.554832000" lon="1.816485000">
        <ele>393.80</ele>
        <time>2013-04-16T18:26:10Z</time>
      </trkpt>
      <trkpt lat="41.554996000" lon="1.816346000">
        <ele>396.50</ele>
        <time>2013-04-16T18:26:15Z</time>
      </trkpt>
      <trkpt lat="41.555147000" lon="1.816166000">
        <ele>399.60</ele>
        <time>2013-04-16T18:26:22Z</time>
      </trkpt>
      <trkpt lat="41.555301000" lon="1.816017000">
        <ele>403.20</ele>
        <time>2013-04-16T18:26:30Z</time>
      </trkpt>
      <trkpt lat="41.555419000" lon="1.815834000">
        <ele>403.40</ele>
        <time>2013-04-16T18:26:42Z</time>
      </trkpt>
      <trkpt lat="41.555586000" lon="1.815923000">
        <ele>401.20</ele>
        <time>2013-04-16T18:27:28Z</time>
      </trkpt>
      <trkpt lat="41.555783000" lon="1.815993000">
        <ele>398.20</ele>
        <time>2013-04-16T18:27:35Z</time>
      </trkpt>
      <trkpt lat="41.555978000" lon="1.816076000">
        <ele>393.80</ele>
        <time>2013-04-16T18:27:42Z</time>
      </trkpt>
      <trkpt lat="41.556133000" lon="1.816210000">
        <ele>389.90</ele>
        <time>2013-04-16T18:27:48Z</time>
      </trkpt>
      <trkpt lat="41.556289000" lon="1.816350000">
        <ele>387.60</ele>
        <time>2013-04-16T18:27:52Z</time>
      </trkpt>
      <trkpt lat="41.556444000" lon="1.816479000">
        <ele>386.10</ele>
        <time>2013-04-16T18:27:57Z</time>
      </trkpt>
      <trkpt lat="41.556531000" lon="1.816699000">
        <ele>384.20</ele>
        <time>2013-04-16T18:28:03Z</time>
      </trkpt>
      <trkpt lat="41.556696000" lon="1.816791000">
        <ele>382.40</ele>
        <time>2013-04-16T18:28:09Z</time>
      </trkpt>
      <trkpt lat="41.556818000" lon="1.816969000">
        <ele>382.80</ele>
        <time>2013-04-16T18:28:17Z</time>
      </trkpt>
      <trkpt lat="41.556926000" lon="1.817165000">
        <ele>379.70</ele>
        <time>2013-04-16T18:28:26Z</time>
      </trkpt>
      <trkpt lat="41.557049000" lon="1.817338000">
        <ele>375.20</ele>
        <time>2013-04-16T18:28:36Z</time>
      </trkpt>
      <trkpt lat="41.557019000" lon="1.817524000">
        <ele>370.80</ele>
        <time>2013-04-16T18:28:45Z</time>
      </trkpt>
      <trkpt lat="41.556849000" lon="1.817454000">
        <ele>370.20</ele>
        <time>2013-04-16T18:28:51Z</time>
      </trkpt>
      <trkpt lat="41.556629000" lon="1.817463000">
        <ele>370.40</ele>
        <time>2013-04-16T18:28:58Z</time>
      </trkpt>
      <trkpt lat="41.556456000" lon="1.817357000">
        <ele>370.90</ele>
        <time>2013-04-16T18:29:04Z</time>
      </trkpt>
      <trkpt lat="41.556344000" lon="1.817166000">
        <ele>371.70</ele>
        <time>2013-04-16T18:29:10Z</time>
      </trkpt>
      <trkpt lat="41.556212000" lon="1.816983000">
        <ele>371.00</ele>
        <time>2013-04-16T18:29:16Z</time>
      </trkpt>
      <trkpt lat="41.556020000" lon="1.817014000">
        <ele>369.80</ele>
        <time>2013-04-16T18:29:22Z</time>
      </trkpt>
      <trkpt lat="41.555910000" lon="1.817239000">
        <ele>368.40</ele>
        <time>2013-04-16T18:29:28Z</time>
      </trkpt>
      <trkpt lat="41.555745000" lon="1.817386000">
        <ele>367.10</ele>
        <time>2013-04-16T18:29:33Z</time>
      </trkpt>
      <trkpt lat="41.555557000" lon="1.817368000">
        <ele>365.70</ele>
        <time>2013-04-16T18:29:37Z</time>
      </trkpt>
      <trkpt lat="41.555364000" lon="1.817399000">
        <ele>366.30</ele>
        <time>2013-04-16T18:29:42Z</time>
      </trkpt>
      <trkpt lat="41.555292000" lon="1.817699000">
        <ele>365.80</ele>
        <time>2013-04-16T18:29:54Z</time>
      </trkpt>
      <trkpt lat="41.555279000" lon="1.817965000">
        <ele>366.00</ele>
        <time>2013-04-16T18:30:00Z</time>
      </trkpt>
      <trkpt lat="41.555445000" lon="1.818158000">
        <ele>367.00</ele>
        <time>2013-04-16T18:30:07Z</time>
      </trkpt>
      <trkpt lat="41.555577000" lon="1.818333000">
        <ele>367.00</ele>
        <time>2013-04-16T18:30:13Z</time>
      </trkpt>
      <trkpt lat="41.555667000" lon="1.818535000">
        <ele>366.60</ele>
        <time>2013-04-16T18:30:19Z</time>
      </trkpt>
      <trkpt lat="41.555647000" lon="1.818813000">
        <ele>364.90</ele>
        <time>2013-04-16T18:30:24Z</time>
      </trkpt>
      <trkpt lat="41.555707000" lon="1.819044000">
        <ele>364.20</ele>
        <time>2013-04-16T18:30:28Z</time>
      </trkpt>
      <trkpt lat="41.555805000" lon="1.819230000">
        <ele>364.30</ele>
        <time>2013-04-16T18:30:36Z</time>
      </trkpt>
      <trkpt lat="41.555996000" lon="1.819350000">
        <ele>362.20</ele>
        <time>2013-04-16T18:30:42Z</time>
      </trkpt>
      <trkpt lat="41.556196000" lon="1.819450000">
        <ele>359.70</ele>
        <time>2013-04-16T18:30:46Z</time>
      </trkpt>
      <trkpt lat="41.556387000" lon="1.819492000">
        <ele>357.40</ele>
        <time>2013-04-16T18:30:52Z</time>
      </trkpt>
      <trkpt lat="41.556559000" lon="1.819582000">
        <ele>353.50</ele>
        <time>2013-04-16T18:30:58Z</time>
      </trkpt>
      <trkpt lat="41.556750000" lon="1.819651000">
        <ele>351.40</ele>
        <time>2013-04-16T18:31:03Z</time>
      </trkpt>
      <trkpt lat="41.556953000" lon="1.819736000">
        <ele>349.50</ele>
        <time>2013-04-16T18:31:08Z</time>
      </trkpt>
      <trkpt lat="41.557144000" lon="1.819844000">
        <ele>348.20</ele>
        <time>2013-04-16T18:31:12Z</time>
      </trkpt>
      <trkpt lat="41.557343000" lon="1.819902000">
        <ele>347.00</ele>
        <time>2013-04-16T18:31:16Z</time>
      </trkpt>
      <trkpt lat="41.557526000" lon="1.819978000">
        <ele>346.20</ele>
        <time>2013-04-16T18:31:21Z</time>
      </trkpt>
      <trkpt lat="41.557700000" lon="1.820114000">
        <ele>344.60</ele>
        <time>2013-04-16T18:31:26Z</time>
      </trkpt>
      <trkpt lat="41.557888000" lon="1.820228000">
        <ele>343.60</ele>
        <time>2013-04-16T18:31:31Z</time>
      </trkpt>
      <trkpt lat="41.557985000" lon="1.820433000">
        <ele>341.20</ele>
        <time>2013-04-16T18:31:36Z</time>
      </trkpt>
      <trkpt lat="41.558094000" lon="1.820611000">
        <ele>339.20</ele>
        <time>2013-04-16T18:31:43Z</time>
      </trkpt>
      <trkpt lat="41.557961000" lon="1.820637000">
        <ele>336.70</ele>
        <time>2013-04-16T18:31:51Z</time>
      </trkpt>
      <trkpt lat="41.557774000" lon="1.820615000">
        <ele>334.70</ele>
        <time>2013-04-16T18:31:57Z</time>
      </trkpt>
      <trkpt lat="41.557569000" lon="1.820621000">
        <ele>331.50</ele>
        <time>2013-04-16T18:32:02Z</time>
      </trkpt>
      <trkpt lat="41.557440000" lon="1.820729000">
        <ele>328.70</ele>
        <time>2013-04-16T18:32:10Z</time>
      </trkpt>
      <trkpt lat="41.557531000" lon="1.820939000">
        <ele>324.60</ele>
        <time>2013-04-16T18:32:16Z</time>
      </trkpt>
      <trkpt lat="41.557690000" lon="1.821076000">
        <ele>323.50</ele>
        <time>2013-04-16T18:32:20Z</time>
      </trkpt>
      <trkpt lat="41.557872000" lon="1.821215000">
        <ele>321.50</ele>
        <time>2013-04-16T18:32:24Z</time>
      </trkpt>
      <trkpt lat="41.558044000" lon="1.821367000">
        <ele>320.70</ele>
        <time>2013-04-16T18:32:28Z</time>
      </trkpt>
      <trkpt lat="41.558168000" lon="1.821571000">
        <ele>319.20</ele>
        <time>2013-04-16T18:32:32Z</time>
      </trkpt>
      <trkpt lat="41.558266000" lon="1.821793000">
        <ele>317.10</ele>
        <time>2013-04-16T18:32:36Z</time>
      </trkpt>
      <trkpt lat="41.558407000" lon="1.821985000">
        <ele>313.50</ele>
        <time>2013-04-16T18:32:44Z</time>
      </trkpt>
      <trkpt lat="41.558400000" lon="1.822193000">
        <ele>311.90</ele>
        <time>2013-04-16T18:32:51Z</time>
      </trkpt>
      <trkpt lat="41.558250000" lon="1.822330000">
        <ele>312.10</ele>
        <time>2013-04-16T18:34:09Z</time>
      </trkpt>
      <trkpt lat="41.558077000" lon="1.822435000">
        <ele>311.70</ele>
        <time>2013-04-16T18:34:17Z</time>
      </trkpt>
      <trkpt lat="41.558056000" lon="1.822728000">
        <ele>309.20</ele>
        <time>2013-04-16T18:34:23Z</time>
      </trkpt>
      <trkpt lat="41.558119000" lon="1.823024000">
        <ele>307.70</ele>
        <time>2013-04-16T18:34:27Z</time>
      </trkpt>
      <trkpt lat="41.558153000" lon="1.823273000">
        <ele>307.10</ele>
        <time>2013-04-16T18:34:33Z</time>
      </trkpt>
      <trkpt lat="41.558192000" lon="1.823516000">
        <ele>306.00</ele>
        <time>2013-04-16T18:34:38Z</time>
      </trkpt>
      <trkpt lat="41.558240000" lon="1.823803000">
        <ele>305.20</ele>
        <time>2013-04-16T18:34:43Z</time>
      </trkpt>
      <trkpt lat="41.558283000" lon="1.824085000">
        <ele>303.90</ele>
        <time>2013-04-16T18:34:48Z</time>
      </trkpt>
      <trkpt lat="41.558342000" lon="1.824366000">
        <ele>302.90</ele>
        <time>2013-04-16T18:34:53Z</time>
      </trkpt>
      <trkpt lat="41.558401000" lon="1.824642000">
        <ele>301.80</ele>
        <time>2013-04-16T18:34:58Z</time>
      </trkpt>
      <trkpt lat="41.558455000" lon="1.824896000">
        <ele>301.50</ele>
        <time>2013-04-16T18:35:03Z</time>
      </trkpt>
      <trkpt lat="41.558483000" lon="1.825158000">
        <ele>301.20</ele>
        <time>2013-04-16T18:35:09Z</time>
      </trkpt>
      <trkpt lat="41.558444000" lon="1.825401000">
        <ele>300.50</ele>
        <time>2013-04-16T18:35:14Z</time>
      </trkpt>
      <trkpt lat="41.558363000" lon="1.825643000">
        <ele>299.30</ele>
        <time>2013-04-16T18:35:19Z</time>
      </trkpt>
      <trkpt lat="41.558277000" lon="1.825884000">
        <ele>298.60</ele>
        <time>2013-04-16T18:35:24Z</time>
      </trkpt>
      <trkpt lat="41.558188000" lon="1.826107000">
        <ele>298.00</ele>
        <time>2013-04-16T18:35:29Z</time>
      </trkpt>
      <trkpt lat="41.558092000" lon="1.826344000">
        <ele>297.30</ele>
        <time>2013-04-16T18:35:34Z</time>
      </trkpt>
      <trkpt lat="41.557995000" lon="1.826598000">
        <ele>296.20</ele>
        <time>2013-04-16T18:35:39Z</time>
      </trkpt>
      <trkpt lat="41.557912000" lon="1.826835000">
        <ele>294.50</ele>
        <time>2013-04-16T18:35:43Z</time>
      </trkpt>
      <trkpt lat="41.557804000" lon="1.827097000">
        <ele>293.40</ele>
        <time>2013-04-16T18:35:47Z</time>
      </trkpt>
      <trkpt lat="41.557705000" lon="1.827377000">
        <ele>292.90</ele>
        <time>2013-04-16T18:35:51Z</time>
      </trkpt>
      <trkpt lat="41.557601000" lon="1.827656000">
        <ele>292.00</ele>
        <time>2013-04-16T18:35:55Z</time>
      </trkpt>
      <trkpt lat="41.557507000" lon="1.827916000">
        <ele>291.60</ele>
        <time>2013-04-16T18:35:59Z</time>
      </trkpt>
      <trkpt lat="41.557426000" lon="1.828147000">
        <ele>292.10</ele>
        <time>2013-04-16T18:36:05Z</time>
      </trkpt>
      <trkpt lat="41.557369000" lon="1.828393000">
        <ele>291.60</ele>
        <time>2013-04-16T18:36:11Z</time>
      </trkpt>
      <trkpt lat="41.557270000" lon="1.828728000">
        <ele>291.30</ele>
        <time>2013-04-16T18:36:18Z</time>
      </trkpt>
      <trkpt lat="41.557212000" lon="1.829018000">
        <ele>289.30</ele>
        <time>2013-04-16T18:36:23Z</time>
      </trkpt>
      <trkpt lat="41.557184000" lon="1.829271000">
        <ele>288.60</ele>
        <time>2013-04-16T18:36:27Z</time>
      </trkpt>
      <trkpt lat="41.557088000" lon="1.829523000">
        <ele>288.50</ele>
        <time>2013-04-16T18:36:33Z</time>
      </trkpt>
      <trkpt lat="41.557009000" lon="1.829744000">
        <ele>287.80</ele>
        <time>2013-04-16T18:36:38Z</time>
      </trkpt>
      <trkpt lat="41.556931000" lon="1.830004000">
        <ele>286.20</ele>
        <time>2013-04-16T18:36:43Z</time>
      </trkpt>
      <trkpt lat="41.556818000" lon="1.830227000">
        <ele>285.80</ele>
        <time>2013-04-16T18:36:48Z</time>
      </trkpt>
      <trkpt lat="41.556720000" lon="1.830474000">
        <ele>285.30</ele>
        <time>2013-04-16T18:36:53Z</time>
      </trkpt>
      <trkpt lat="41.556621000" lon="1.830718000">
        <ele>284.80</ele>
        <time>2013-04-16T18:36:58Z</time>
      </trkpt>
      <trkpt lat="41.556529000" lon="1.830975000">
        <ele>284.00</ele>
        <time>2013-04-16T18:37:03Z</time>
      </trkpt>
      <trkpt lat="41.556463000" lon="1.831215000">
        <ele>283.40</ele>
        <time>2013-04-16T18:37:07Z</time>
      </trkpt>
      <trkpt lat="41.556447000" lon="1.831463000">
        <ele>282.50</ele>
        <time>2013-04-16T18:37:11Z</time>
      </trkpt>
      <trkpt lat="41.556364000" lon="1.831694000">
        <ele>281.50</ele>
        <time>2013-04-16T18:37:15Z</time>
      </trkpt>
      <trkpt lat="41.556255000" lon="1.831942000">
        <ele>280.30</ele>
        <time>2013-04-16T18:37:19Z</time>
      </trkpt>
      <trkpt lat="41.556116000" lon="1.832188000">
        <ele>278.80</ele>
        <time>2013-04-16T18:37:23Z</time>
      </trkpt>
      <trkpt lat="41.556010000" lon="1.832467000">
        <ele>277.60</ele>
        <time>2013-04-16T18:37:27Z</time>
      </trkpt>
      <trkpt lat="41.555916000" lon="1.832679000">
        <ele>276.80</ele>
        <time>2013-04-16T18:37:30Z</time>
      </trkpt>
      <trkpt lat="41.555808000" lon="1.832958000">
        <ele>276.10</ele>
        <time>2013-04-16T18:37:34Z</time>
      </trkpt>
      <trkpt lat="41.555645000" lon="1.833144000">
        <ele>275.70</ele>
        <time>2013-04-16T18:37:38Z</time>
      </trkpt>
      <trkpt lat="41.555439000" lon="1.833300000">
        <ele>274.80</ele>
        <time>2013-04-16T18:37:42Z</time>
      </trkpt>
      <trkpt lat="41.555240000" lon="1.833386000">
        <ele>274.80</ele>
        <time>2013-04-16T18:37:47Z</time>
      </trkpt>
      <trkpt lat="41.555041000" lon="1.833510000">
        <ele>274.50</ele>
        <time>2013-04-16T18:37:52Z</time>
      </trkpt>
      <trkpt lat="41.555062000" lon="1.833793000">
        <ele>273.10</ele>
        <time>2013-04-16T18:37:57Z</time>
      </trkpt>
      <trkpt lat="41.555083000" lon="1.834087000">
        <ele>272.40</ele>
        <time>2013-04-16T18:38:02Z</time>
      </trkpt>
      <trkpt lat="41.555108000" lon="1.834371000">
        <ele>272.20</ele>
        <time>2013-04-16T18:38:07Z</time>
      </trkpt>
      <trkpt lat="41.555073000" lon="1.834664000">
        <ele>271.20</ele>
        <time>2013-04-16T18:38:12Z</time>
      </trkpt>
      <trkpt lat="41.554975000" lon="1.834888000">
        <ele>270.30</ele>
        <time>2013-04-16T18:38:16Z</time>
      </trkpt>
      <trkpt lat="41.554868000" lon="1.835115000">
        <ele>269.80</ele>
        <time>2013-04-16T18:38:20Z</time>
      </trkpt>
      <trkpt lat="41.554761000" lon="1.835315000">
        <ele>269.00</ele>
        <time>2013-04-16T18:38:24Z</time>
      </trkpt>
      <trkpt lat="41.554689000" lon="1.835565000">
        <ele>268.30</ele>
        <time>2013-04-16T18:38:28Z</time>
      </trkpt>
      <trkpt lat="41.554603000" lon="1.835813000">
        <ele>267.30</ele>
        <time>2013-04-16T18:38:32Z</time>
      </trkpt>
      <trkpt lat="41.554482000" lon="1.836001000">
        <ele>266.90</ele>
        <time>2013-04-16T18:38:36Z</time>
      </trkpt>
      <trkpt lat="41.554328000" lon="1.836161000">
        <ele>264.40</ele>
        <time>2013-04-16T18:38:40Z</time>
      </trkpt>
      <trkpt lat="41.554283000" lon="1.836448000">
        <ele>263.30</ele>
        <time>2013-04-16T18:38:44Z</time>
      </trkpt>
      <trkpt lat="41.554250000" lon="1.836741000">
        <ele>262.60</ele>
        <time>2013-04-16T18:38:48Z</time>
      </trkpt>
      <trkpt lat="41.554173000" lon="1.837042000">
        <ele>261.20</ele>
        <time>2013-04-16T18:38:52Z</time>
      </trkpt>
      <trkpt lat="41.554126000" lon="1.837284000">
        <ele>259.60</ele>
        <time>2013-04-16T18:38:55Z</time>
      </trkpt>
      <trkpt lat="41.554143000" lon="1.837542000">
        <ele>258.70</ele>
        <time>2013-04-16T18:38:58Z</time>
      </trkpt>
      <trkpt lat="41.554113000" lon="1.837813000">
        <ele>257.40</ele>
        <time>2013-04-16T18:39:01Z</time>
      </trkpt>
      <trkpt lat="41.554063000" lon="1.838076000">
        <ele>256.00</ele>
        <time>2013-04-16T18:39:04Z</time>
      </trkpt>
      <trkpt lat="41.553987000" lon="1.838338000">
        <ele>254.10</ele>
        <time>2013-04-16T18:39:07Z</time>
      </trkpt>
      <trkpt lat="41.553922000" lon="1.838606000">
        <ele>254.10</ele>
        <time>2013-04-16T18:39:10Z</time>
      </trkpt>
      <trkpt lat="41.553918000" lon="1.838906000">
        <ele>252.90</ele>
        <time>2013-04-16T18:39:13Z</time>
      </trkpt>
      <trkpt lat="41.553899000" lon="1.839187000">
        <ele>252.90</ele>
        <time>2013-04-16T18:39:16Z</time>
      </trkpt>
      <trkpt lat="41.553858000" lon="1.839441000">
        <ele>253.00</ele>
        <time>2013-04-16T18:39:19Z</time>
      </trkpt>
      <trkpt lat="41.553803000" lon="1.839667000">
        <ele>252.50</ele>
        <time>2013-04-16T18:39:22Z</time>
      </trkpt>
      <trkpt lat="41.553689000" lon="1.839928000">
        <ele>252.10</ele>
        <time>2013-04-16T18:39:26Z</time>
      </trkpt>
      <trkpt lat="41.553554000" lon="1.840136000">
        <ele>251.90</ele>
        <time>2013-04-16T18:39:30Z</time>
      </trkpt>
      <trkpt lat="41.553433000" lon="1.840365000">
        <ele>250.70</ele>
        <time>2013-04-16T18:39:34Z</time>
      </trkpt>
      <trkpt lat="41.553307000" lon="1.840585000">
        <ele>250.10</ele>
        <time>2013-04-16T18:39:38Z</time>
      </trkpt>
      <trkpt lat="41.553168000" lon="1.840808000">
        <ele>249.80</ele>
        <time>2013-04-16T18:39:42Z</time>
      </trkpt>
      <trkpt lat="41.553024000" lon="1.841044000">
        <ele>249.70</ele>
        <time>2013-04-16T18:39:46Z</time>
      </trkpt>
      <trkpt lat="41.552901000" lon="1.841235000">
        <ele>251.20</ele>
        <time>2013-04-16T18:39:50Z</time>
      </trkpt>
      <trkpt lat="41.552768000" lon="1.841443000">
        <ele>251.90</ele>
        <time>2013-04-16T18:39:56Z</time>
      </trkpt>
      <trkpt lat="41.552629000" lon="1.841683000">
        <ele>250.40</ele>
        <time>2013-04-16T18:40:01Z</time>
      </trkpt>
      <trkpt lat="41.552496000" lon="1.841882000">
        <ele>249.70</ele>
        <time>2013-04-16T18:40:05Z</time>
      </trkpt>
      <trkpt lat="41.552362000" lon="1.842120000">
        <ele>247.10</ele>
        <time>2013-04-16T18:40:09Z</time>
      </trkpt>
      <trkpt lat="41.552262000" lon="1.842331000">
        <ele>247.10</ele>
        <time>2013-04-16T18:40:12Z</time>
      </trkpt>
      <trkpt lat="41.552120000" lon="1.842550000">
        <ele>247.90</ele>
        <time>2013-04-16T18:40:16Z</time>
      </trkpt>
      <trkpt lat="41.551968000" lon="1.842687000">
        <ele>248.30</ele>
        <time>2013-04-16T18:40:20Z</time>
      </trkpt>
      <trkpt lat="41.551778000" lon="1.842828000">
        <ele>248.60</ele>
        <time>2013-04-16T18:40:25Z</time>
      </trkpt>
      <trkpt lat="41.551595000" lon="1.842975000">
        <ele>249.00</ele>
        <time>2013-04-16T18:40:30Z</time>
      </trkpt>
      <trkpt lat="41.551417000" lon="1.843128000">
        <ele>249.20</ele>
        <time>2013-04-16T18:40:35Z</time>
      </trkpt>
      <trkpt lat="41.551237000" lon="1.843284000">
        <ele>249.30</ele>
        <time>2013-04-16T18:40:40Z</time>
      </trkpt>
      <trkpt lat="41.551066000" lon="1.843438000">
        <ele>249.60</ele>
        <time>2013-04-16T18:40:45Z</time>
      </trkpt>
      <trkpt lat="41.550890000" lon="1.843589000">
        <ele>249.70</ele>
        <time>2013-04-16T18:40:50Z</time>
      </trkpt>
      <trkpt lat="41.550719000" lon="1.843739000">
        <ele>250.40</ele>
        <time>2013-04-16T18:40:55Z</time>
      </trkpt>
      <trkpt lat="41.550551000" lon="1.843880000">
        <ele>250.30</ele>
        <time>2013-04-16T18:41:00Z</time>
      </trkpt>
      <trkpt lat="41.550377000" lon="1.844002000">
        <ele>251.10</ele>
        <time>2013-04-16T18:41:05Z</time>
      </trkpt>
      <trkpt lat="41.550210000" lon="1.844142000">
        <ele>251.80</ele>
        <time>2013-04-16T18:41:10Z</time>
      </trkpt>
      <trkpt lat="41.550051000" lon="1.844276000">
        <ele>252.50</ele>
        <time>2013-04-16T18:41:15Z</time>
      </trkpt>
      <trkpt lat="41.549922000" lon="1.844451000">
        <ele>253.50</ele>
        <time>2013-04-16T18:41:20Z</time>
      </trkpt>
      <trkpt lat="41.549827000" lon="1.844655000">
        <ele>254.10</ele>
        <time>2013-04-16T18:41:25Z</time>
      </trkpt>
      <trkpt lat="41.549716000" lon="1.844892000">
        <ele>254.80</ele>
        <time>2013-04-16T18:41:31Z</time>
      </trkpt>
      <trkpt lat="41.549615000" lon="1.845097000">
        <ele>255.80</ele>
        <time>2013-04-16T18:41:36Z</time>
      </trkpt>
      <trkpt lat="41.549508000" lon="1.845299000">
        <ele>256.60</ele>
        <time>2013-04-16T18:41:41Z</time>
      </trkpt>
      <trkpt lat="41.549393000" lon="1.845494000">
        <ele>257.50</ele>
        <time>2013-04-16T18:41:46Z</time>
      </trkpt>
      <trkpt lat="41.549239000" lon="1.845694000">
        <ele>258.70</ele>
        <time>2013-04-16T18:41:52Z</time>
      </trkpt>
      <trkpt lat="41.549116000" lon="1.845923000">
        <ele>259.50</ele>
        <time>2013-04-16T18:41:58Z</time>
      </trkpt>
      <trkpt lat="41.549004000" lon="1.846161000">
        <ele>259.70</ele>
        <time>2013-04-16T18:42:04Z</time>
      </trkpt>
      <trkpt lat="41.548926000" lon="1.846418000">
        <ele>259.80</ele>
        <time>2013-04-16T18:42:10Z</time>
      </trkpt>
      <trkpt lat="41.548875000" lon="1.846686000">
        <ele>260.10</ele>
        <time>2013-04-16T18:42:16Z</time>
      </trkpt>
      <trkpt lat="41.548845000" lon="1.846962000">
        <ele>260.20</ele>
        <time>2013-04-16T18:42:22Z</time>
      </trkpt>
      <trkpt lat="41.548817000" lon="1.847209000">
        <ele>259.60</ele>
        <time>2013-04-16T18:42:27Z</time>
      </trkpt>
      <trkpt lat="41.548794000" lon="1.847500000">
        <ele>258.30</ele>
        <time>2013-04-16T18:42:32Z</time>
      </trkpt>
      <trkpt lat="41.548692000" lon="1.847728000">
        <ele>257.40</ele>
        <time>2013-04-16T18:42:37Z</time>
      </trkpt>
      <trkpt lat="41.548581000" lon="1.847930000">
        <ele>255.50</ele>
        <time>2013-04-16T18:42:42Z</time>
      </trkpt>
      <trkpt lat="41.548495000" lon="1.848146000">
        <ele>251.70</ele>
        <time>2013-04-16T18:42:46Z</time>
      </trkpt>
      <trkpt lat="41.548396000" lon="1.848447000">
        <ele>246.30</ele>
        <time>2013-04-16T18:42:50Z</time>
      </trkpt>
      <trkpt lat="41.548290000" lon="1.848647000">
        <ele>245.30</ele>
        <time>2013-04-16T18:42:53Z</time>
      </trkpt>
      <trkpt lat="41.548138000" lon="1.848891000">
        <ele>241.30</ele>
        <time>2013-04-16T18:42:57Z</time>
      </trkpt>
      <trkpt lat="41.547967000" lon="1.849092000">
        <ele>237.70</ele>
        <time>2013-04-16T18:43:01Z</time>
      </trkpt>
      <trkpt lat="41.547802000" lon="1.849339000">
        <ele>234.70</ele>
        <time>2013-04-16T18:43:05Z</time>
      </trkpt>
      <trkpt lat="41.547679000" lon="1.849544000">
        <ele>231.60</ele>
        <time>2013-04-16T18:43:08Z</time>
      </trkpt>
      <trkpt lat="41.547563000" lon="1.849759000">
        <ele>229.10</ele>
        <time>2013-04-16T18:43:11Z</time>
      </trkpt>
      <trkpt lat="41.547440000" lon="1.849970000">
        <ele>225.90</ele>
        <time>2013-04-16T18:43:14Z</time>
      </trkpt>
      <trkpt lat="41.547306000" lon="1.850209000">
        <ele>222.80</ele>
        <time>2013-04-16T18:43:17Z</time>
      </trkpt>
      <trkpt lat="41.547170000" lon="1.850433000">
        <ele>221.00</ele>
        <time>2013-04-16T18:43:20Z</time>
      </trkpt>
      <trkpt lat="41.547060000" lon="1.850642000">
        <ele>220.00</ele>
        <time>2013-04-16T18:43:23Z</time>
      </trkpt>
      <trkpt lat="41.546943000" lon="1.850834000">
        <ele>218.20</ele>
        <time>2013-04-16T18:43:26Z</time>
      </trkpt>
      <trkpt lat="41.546834000" lon="1.851057000">
        <ele>216.90</ele>
        <time>2013-04-16T18:43:29Z</time>
      </trkpt>
      <trkpt lat="41.546735000" lon="1.851280000">
        <ele>216.20</ele>
        <time>2013-04-16T18:43:32Z</time>
      </trkpt>
      <trkpt lat="41.546638000" lon="1.851509000">
        <ele>215.60</ele>
        <time>2013-04-16T18:43:35Z</time>
      </trkpt>
      <trkpt lat="41.546565000" lon="1.851749000">
        <ele>215.00</ele>
        <time>2013-04-16T18:43:38Z</time>
      </trkpt>
      <trkpt lat="41.546462000" lon="1.851988000">
        <ele>213.70</ele>
        <time>2013-04-16T18:43:41Z</time>
      </trkpt>
      <trkpt lat="41.546317000" lon="1.852169000">
        <ele>213.50</ele>
        <time>2013-04-16T18:43:44Z</time>
      </trkpt>
      <trkpt lat="41.546152000" lon="1.852275000">
        <ele>213.10</ele>
        <time>2013-04-16T18:43:47Z</time>
      </trkpt>
      <trkpt lat="41.545976000" lon="1.852443000">
        <ele>212.70</ele>
        <time>2013-04-16T18:43:51Z</time>
      </trkpt>
      <trkpt lat="41.545818000" lon="1.852650000">
        <ele>212.20</ele>
        <time>2013-04-16T18:43:55Z</time>
      </trkpt>
      <trkpt lat="41.545657000" lon="1.852858000">
        <ele>212.00</ele>
        <time>2013-04-16T18:43:59Z</time>
      </trkpt>
      <trkpt lat="41.545511000" lon="1.853071000">
        <ele>211.30</ele>
        <time>2013-04-16T18:44:03Z</time>
      </trkpt>
      <trkpt lat="41.545341000" lon="1.853245000">
        <ele>210.80</ele>
        <time>2013-04-16T18:44:07Z</time>
      </trkpt>
      <trkpt lat="41.545182000" lon="1.853435000">
        <ele>210.30</ele>
        <time>2013-04-16T18:44:11Z</time>
      </trkpt>
      <trkpt lat="41.544994000" lon="1.853595000">
        <ele>209.20</ele>
        <time>2013-04-16T18:44:15Z</time>
      </trkpt>
      <trkpt lat="41.544823000" lon="1.853752000">
        <ele>208.40</ele>
        <time>2013-04-16T18:44:19Z</time>
      </trkpt>
      <trkpt lat="41.544639000" lon="1.853899000">
        <ele>207.50</ele>
        <time>2013-04-16T18:44:23Z</time>
      </trkpt>
      <trkpt lat="41.544483000" lon="1.854091000">
        <ele>207.40</ele>
        <time>2013-04-16T18:44:27Z</time>
      </trkpt>
      <trkpt lat="41.544295000" lon="1.854148000">
        <ele>206.90</ele>
        <time>2013-04-16T18:44:31Z</time>
      </trkpt>
      <trkpt lat="41.544125000" lon="1.854109000">
        <ele>208.10</ele>
        <time>2013-04-16T18:44:36Z</time>
      </trkpt>
      <trkpt lat="41.544195000" lon="1.854340000">
        <ele>209.80</ele>
        <time>2013-04-16T18:44:42Z</time>
      </trkpt>
      <trkpt lat="41.544293000" lon="1.854558000">
        <ele>210.50</ele>
        <time>2013-04-16T18:44:48Z</time>
      </trkpt>
      <trkpt lat="41.544413000" lon="1.854755000">
        <ele>210.40</ele>
        <time>2013-04-16T18:44:55Z</time>
      </trkpt>
      <trkpt lat="41.544369000" lon="1.854949000">
        <ele>209.20</ele>
        <time>2013-04-16T18:45:02Z</time>
      </trkpt>
      <trkpt lat="41.544146000" lon="1.855056000">
        <ele>204.70</ele>
        <time>2013-04-16T18:45:07Z</time>
      </trkpt>
      <trkpt lat="41.543963000" lon="1.855221000">
        <ele>201.50</ele>
        <time>2013-04-16T18:45:10Z</time>
      </trkpt>
      <trkpt lat="41.543773000" lon="1.855398000">
        <ele>200.30</ele>
        <time>2013-04-16T18:45:13Z</time>
      </trkpt>
      <trkpt lat="41.543581000" lon="1.855542000">
        <ele>200.40</ele>
        <time>2013-04-16T18:45:16Z</time>
      </trkpt>
      <trkpt lat="41.543393000" lon="1.855677000">
        <ele>199.60</ele>
        <time>2013-04-16T18:45:19Z</time>
      </trkpt>
      <trkpt lat="41.543224000" lon="1.855811000">
        <ele>199.10</ele>
        <time>2013-04-16T18:45:22Z</time>
      </trkpt>
      <trkpt lat="41.543050000" lon="1.855906000">
        <ele>198.70</ele>
        <time>2013-04-16T18:45:25Z</time>
      </trkpt>
      <trkpt lat="41.542882000" lon="1.856024000">
        <ele>197.50</ele>
        <time>2013-04-16T18:45:28Z</time>
      </trkpt>
      <trkpt lat="41.542719000" lon="1.856147000">
        <ele>197.60</ele>
        <time>2013-04-16T18:45:31Z</time>
      </trkpt>
      <trkpt lat="41.542569000" lon="1.856282000">
        <ele>196.70</ele>
        <time>2013-04-16T18:45:34Z</time>
      </trkpt>
      <trkpt lat="41.542456000" lon="1.856469000">
        <ele>196.10</ele>
        <time>2013-04-16T18:45:37Z</time>
      </trkpt>
      <trkpt lat="41.542279000" lon="1.856676000">
        <ele>195.40</ele>
        <time>2013-04-16T18:45:41Z</time>
      </trkpt>
      <trkpt lat="41.542122000" lon="1.856812000">
        <ele>195.00</ele>
        <time>2013-04-16T18:45:44Z</time>
      </trkpt>
      <trkpt lat="41.541966000" lon="1.856938000">
        <ele>194.40</ele>
        <time>2013-04-16T18:45:47Z</time>
      </trkpt>
      <trkpt lat="41.541822000" lon="1.857080000">
        <ele>194.00</ele>
        <time>2013-04-16T18:45:50Z</time>
      </trkpt>
      <trkpt lat="41.541640000" lon="1.857259000">
        <ele>193.50</ele>
        <time>2013-04-16T18:45:54Z</time>
      </trkpt>
      <trkpt lat="41.541507000" lon="1.857427000">
        <ele>191.90</ele>
        <time>2013-04-16T18:45:57Z</time>
      </trkpt>
      <trkpt lat="41.541368000" lon="1.857599000">
        <ele>191.60</ele>
        <time>2013-04-16T18:46:00Z</time>
      </trkpt>
      <trkpt lat="41.541226000" lon="1.857767000">
        <ele>190.20</ele>
        <time>2013-04-16T18:46:03Z</time>
      </trkpt>
      <trkpt lat="41.541090000" lon="1.857939000">
        <ele>190.10</ele>
        <time>2013-04-16T18:46:06Z</time>
      </trkpt>
      <trkpt lat="41.540944000" lon="1.858076000">
        <ele>189.70</ele>
        <time>2013-04-16T18:46:09Z</time>
      </trkpt>
      <trkpt lat="41.540755000" lon="1.858263000">
        <ele>188.90</ele>
        <time>2013-04-16T18:46:13Z</time>
      </trkpt>
      <trkpt lat="41.540568000" lon="1.858464000">
        <ele>188.10</ele>
        <time>2013-04-16T18:46:17Z</time>
      </trkpt>
      <trkpt lat="41.540422000" lon="1.858611000">
        <ele>187.50</ele>
        <time>2013-04-16T18:46:20Z</time>
      </trkpt>
      <trkpt lat="41.540234000" lon="1.858806000">
        <ele>186.40</ele>
        <time>2013-04-16T18:46:24Z</time>
      </trkpt>
      <trkpt lat="41.540103000" lon="1.858969000">
        <ele>185.80</ele>
        <time>2013-04-16T18:46:27Z</time>
      </trkpt>
      <trkpt lat="41.539937000" lon="1.859193000">
        <ele>185.60</ele>
        <time>2013-04-16T18:46:31Z</time>
      </trkpt>
      <trkpt lat="41.539744000" lon="1.859386000">
        <ele>184.50</ele>
        <time>2013-04-16T18:46:35Z</time>
      </trkpt>
      <trkpt lat="41.539580000" lon="1.859482000">
        <ele>183.90</ele>
        <time>2013-04-16T18:46:38Z</time>
      </trkpt>
      <trkpt lat="41.539410000" lon="1.859572000">
        <ele>183.60</ele>
        <time>2013-04-16T18:46:41Z</time>
      </trkpt>
      <trkpt lat="41.539216000" lon="1.859745000">
        <ele>183.30</ele>
        <time>2013-04-16T18:46:45Z</time>
      </trkpt>
      <trkpt lat="41.539030000" lon="1.859952000">
        <ele>182.20</ele>
        <time>2013-04-16T18:46:49Z</time>
      </trkpt>
      <trkpt lat="41.538884000" lon="1.860103000">
        <ele>181.20</ele>
        <time>2013-04-16T18:46:52Z</time>
      </trkpt>
      <trkpt lat="41.538741000" lon="1.860253000">
        <ele>180.40</ele>
        <time>2013-04-16T18:46:55Z</time>
      </trkpt>
      <trkpt lat="41.538593000" lon="1.860399000">
        <ele>180.10</ele>
        <time>2013-04-16T18:46:58Z</time>
      </trkpt>
      <trkpt lat="41.538447000" lon="1.860546000">
        <ele>179.50</ele>
        <time>2013-04-16T18:47:01Z</time>
      </trkpt>
      <trkpt lat="41.538297000" lon="1.860681000">
        <ele>178.60</ele>
        <time>2013-04-16T18:47:04Z</time>
      </trkpt>
      <trkpt lat="41.538194000" lon="1.860866000">
        <ele>179.50</ele>
        <time>2013-04-16T18:47:08Z</time>
      </trkpt>
      <trkpt lat="41.538316000" lon="1.861080000">
        <ele>179.60</ele>
        <time>2013-04-16T18:47:14Z</time>
      </trkpt>
      <trkpt lat="41.538441000" lon="1.861258000">
        <ele>178.80</ele>
        <time>2013-04-16T18:47:19Z</time>
      </trkpt>
      <trkpt lat="41.538584000" lon="1.861469000">
        <ele>179.50</ele>
        <time>2013-04-16T18:47:24Z</time>
      </trkpt>
      <trkpt lat="41.538710000" lon="1.861687000">
        <ele>179.30</ele>
        <time>2013-04-16T18:47:29Z</time>
      </trkpt>
      <trkpt lat="41.538829000" lon="1.861871000">
        <ele>179.40</ele>
        <time>2013-04-16T18:47:34Z</time>
      </trkpt>
      <trkpt lat="41.538971000" lon="1.862065000">
        <ele>180.10</ele>
        <time>2013-04-16T18:47:39Z</time>
      </trkpt>
      <trkpt lat="41.539088000" lon="1.862301000">
        <ele>180.00</ele>
        <time>2013-04-16T18:47:44Z</time>
      </trkpt>
      <trkpt lat="41.539012000" lon="1.862489000">
        <ele>179.40</ele>
        <time>2013-04-16T18:47:49Z</time>
      </trkpt>
      <trkpt lat="41.538835000" lon="1.862663000">
        <ele>178.10</ele>
        <time>2013-04-16T18:47:54Z</time>
      </trkpt>
      <trkpt lat="41.538666000" lon="1.862812000">
        <ele>177.50</ele>
        <time>2013-04-16T18:47:58Z</time>
      </trkpt>
      <trkpt lat="41.538507000" lon="1.862972000">
        <ele>177.10</ele>
        <time>2013-04-16T18:48:02Z</time>
      </trkpt>
      <trkpt lat="41.538335000" lon="1.863124000">
        <ele>176.50</ele>
        <time>2013-04-16T18:48:06Z</time>
      </trkpt>
      <trkpt lat="41.538176000" lon="1.863267000">
        <ele>176.50</ele>
        <time>2013-04-16T18:48:10Z</time>
      </trkpt>
      <trkpt lat="41.537998000" lon="1.863429000">
        <ele>175.70</ele>
        <time>2013-04-16T18:48:15Z</time>
      </trkpt>
      <trkpt lat="41.537844000" lon="1.863583000">
        <ele>175.10</ele>
        <time>2013-04-16T18:48:19Z</time>
      </trkpt>
      <trkpt lat="41.537686000" lon="1.863740000">
        <ele>174.30</ele>
        <time>2013-04-16T18:48:23Z</time>
      </trkpt>
      <trkpt lat="41.537526000" lon="1.863921000">
        <ele>173.90</ele>
        <time>2013-04-16T18:48:27Z</time>
      </trkpt>
      <trkpt lat="41.537372000" lon="1.864108000">
        <ele>173.10</ele>
        <time>2013-04-16T18:48:31Z</time>
      </trkpt>
      <trkpt lat="41.537224000" lon="1.864298000">
        <ele>172.50</ele>
        <time>2013-04-16T18:48:35Z</time>
      </trkpt>
      <trkpt lat="41.537110000" lon="1.864490000">
        <ele>173.80</ele>
        <time>2013-04-16T18:48:40Z</time>
      </trkpt>
      <trkpt lat="41.536983000" lon="1.864699000">
        <ele>172.50</ele>
        <time>2013-04-16T18:48:47Z</time>
      </trkpt>
      <trkpt lat="41.536885000" lon="1.864923000">
        <ele>170.60</ele>
        <time>2013-04-16T18:48:52Z</time>
      </trkpt>
      <trkpt lat="41.536765000" lon="1.865144000">
        <ele>170.40</ele>
        <time>2013-04-16T18:48:58Z</time>
      </trkpt>
      <trkpt lat="41.536631000" lon="1.865353000">
        <ele>169.60</ele>
        <time>2013-04-16T18:49:03Z</time>
      </trkpt>
      <trkpt lat="41.536450000" lon="1.865392000">
        <ele>169.40</ele>
        <time>2013-04-16T18:49:07Z</time>
      </trkpt>
      <trkpt lat="41.536290000" lon="1.865299000">
        <ele>168.70</ele>
        <time>2013-04-16T18:49:11Z</time>
      </trkpt>
      <trkpt lat="41.536122000" lon="1.865391000">
        <ele>167.60</ele>
        <time>2013-04-16T18:49:18Z</time>
      </trkpt>
      <trkpt lat="41.536033000" lon="1.865612000">
        <ele>166.70</ele>
        <time>2013-04-16T18:49:23Z</time>
      </trkpt>
      <trkpt lat="41.535967000" lon="1.865840000">
        <ele>165.40</ele>
        <time>2013-04-16T18:49:29Z</time>
      </trkpt>
      <trkpt lat="41.535875000" lon="1.866059000">
        <ele>163.10</ele>
        <time>2013-04-16T18:49:35Z</time>
      </trkpt>
      <trkpt lat="41.535865000" lon="1.866274000">
        <ele>161.20</ele>
        <time>2013-04-16T18:49:44Z</time>
      </trkpt>
      <trkpt lat="41.536080000" lon="1.866343000">
        <ele>160.50</ele>
        <time>2013-04-16T18:49:51Z</time>
      </trkpt>
      <trkpt lat="41.536267000" lon="1.866410000">
        <ele>159.40</ele>
        <time>2013-04-16T18:49:55Z</time>
      </trkpt>
      <trkpt lat="41.536440000" lon="1.866529000">
        <ele>159.30</ele>
        <time>2013-04-16T18:49:59Z</time>
      </trkpt>
      <trkpt lat="41.536618000" lon="1.866693000">
        <ele>158.30</ele>
        <time>2013-04-16T18:50:04Z</time>
      </trkpt>
      <trkpt lat="41.536707000" lon="1.866897000">
        <ele>158.90</ele>
        <time>2013-04-16T18:50:09Z</time>
      </trkpt>
      <trkpt lat="41.536846000" lon="1.866997000">
        <ele>160.20</ele>
        <time>2013-04-16T18:50:18Z</time>
      </trkpt>
      <trkpt lat="41.536860000" lon="1.867357000">
        <ele>161.30</ele>
        <time>2013-04-16T18:50:41Z</time>
      </trkpt>
      <trkpt lat="41.537022000" lon="1.867594000">
        <ele>162.80</ele>
        <time>2013-04-16T18:50:46Z</time>
      </trkpt>
      <trkpt lat="41.537173000" lon="1.867810000">
        <ele>164.20</ele>
        <time>2013-04-16T18:50:51Z</time>
      </trkpt>
      <trkpt lat="41.537242000" lon="1.868067000">
        <ele>166.10</ele>
        <time>2013-04-16T18:50:58Z</time>
      </trkpt>
      <trkpt lat="41.537412000" lon="1.868087000">
        <ele>167.10</ele>
        <time>2013-04-16T18:51:05Z</time>
      </trkpt>
      <trkpt lat="41.537559000" lon="1.868240000">
        <ele>168.60</ele>
        <time>2013-04-16T18:51:12Z</time>
      </trkpt>
      <trkpt lat="41.537707000" lon="1.868428000">
        <ele>169.60</ele>
        <time>2013-04-16T18:51:22Z</time>
      </trkpt>
      <trkpt lat="41.537794000" lon="1.868637000">
        <ele>169.90</ele>
        <time>2013-04-16T18:51:29Z</time>
      </trkpt>
      <trkpt lat="41.538034000" lon="1.868825000">
        <ele>170.00</ele>
        <time>2013-04-16T18:51:39Z</time>
      </trkpt>
      <trkpt lat="41.538096000" lon="1.869043000">
        <ele>170.60</ele>
        <time>2013-04-16T18:51:48Z</time>
      </trkpt>
      <trkpt lat="41.538212000" lon="1.869239000">
        <ele>170.50</ele>
        <time>2013-04-16T18:51:57Z</time>
      </trkpt>
      <trkpt lat="41.538371000" lon="1.869503000">
        <ele>171.10</ele>
        <time>2013-04-16T18:52:09Z</time>
      </trkpt>
      <trkpt lat="41.538463000" lon="1.869756000">
        <ele>171.50</ele>
        <time>2013-04-16T18:52:20Z</time>
      </trkpt>
      <trkpt lat="41.538567000" lon="1.869984000">
        <ele>172.00</ele>
        <time>2013-04-16T18:52:28Z</time>
      </trkpt>
      <trkpt lat="41.538697000" lon="1.870186000">
        <ele>172.80</ele>
        <time>2013-04-16T18:52:37Z</time>
      </trkpt>
      <trkpt lat="41.538798000" lon="1.870401000">
        <ele>173.50</ele>
        <time>2013-04-16T18:52:51Z</time>
      </trkpt>
      <trkpt lat="41.538909000" lon="1.870598000">
        <ele>173.80</ele>
        <time>2013-04-16T18:53:04Z</time>
      </trkpt>
      <trkpt lat="41.538735000" lon="1.870763000">
        <ele>173.60</ele>
        <time>2013-04-16T18:53:12Z</time>
      </trkpt>
      <trkpt lat="41.538564000" lon="1.870911000">
        <ele>173.40</ele>
        <time>2013-04-16T18:53:20Z</time>
      </trkpt>
      <trkpt lat="41.538378000" lon="1.871039000">
        <ele>173.80</ele>
        <time>2013-04-16T18:53:27Z</time>
      </trkpt>
      <trkpt lat="41.538165000" lon="1.871161000">
        <ele>173.70</ele>
        <time>2013-04-16T18:53:34Z</time>
      </trkpt>
      <trkpt lat="41.538016000" lon="1.871346000">
        <ele>174.80</ele>
        <time>2013-04-16T18:53:40Z</time>
      </trkpt>
      <trkpt lat="41.537793000" lon="1.871517000">
        <ele>175.40</ele>
        <time>2013-04-16T18:53:48Z</time>
      </trkpt>
      <trkpt lat="41.537644000" lon="1.871722000">
        <ele>176.70</ele>
        <time>2013-04-16T18:53:54Z</time>
      </trkpt>
      <trkpt lat="41.537505000" lon="1.871948000">
        <ele>177.90</ele>
        <time>2013-04-16T18:54:00Z</time>
      </trkpt>
      <trkpt lat="41.537464000" lon="1.872231000">
        <ele>180.10</ele>
        <time>2013-04-16T18:54:05Z</time>
      </trkpt>
      <trkpt lat="41.537420000" lon="1.872528000">
        <ele>181.20</ele>
        <time>2013-04-16T18:54:10Z</time>
      </trkpt>
      <trkpt lat="41.537304000" lon="1.872777000">
        <ele>183.00</ele>
        <time>2013-04-16T18:54:16Z</time>
      </trkpt>
      <trkpt lat="41.537176000" lon="1.873008000">
        <ele>183.40</ele>
        <time>2013-04-16T18:54:22Z</time>
      </trkpt>
      <trkpt lat="41.537086000" lon="1.873229000">
        <ele>181.60</ele>
        <time>2013-04-16T18:54:27Z</time>
      </trkpt>
      <trkpt lat="41.537043000" lon="1.873461000">
        <ele>180.50</ele>
        <time>2013-04-16T18:54:31Z</time>
      </trkpt>
      <trkpt lat="41.536998000" lon="1.873719000">
        <ele>180.10</ele>
        <time>2013-04-16T18:54:35Z</time>
      </trkpt>
      <trkpt lat="41.536946000" lon="1.873975000">
        <ele>179.90</ele>
        <time>2013-04-16T18:54:39Z</time>
      </trkpt>
      <trkpt lat="41.536882000" lon="1.874257000">
        <ele>180.60</ele>
        <time>2013-04-16T18:54:44Z</time>
      </trkpt>
      <trkpt lat="41.536822000" lon="1.874536000">
        <ele>180.70</ele>
        <time>2013-04-16T18:54:49Z</time>
      </trkpt>
      <trkpt lat="41.536739000" lon="1.874791000">
        <ele>181.70</ele>
        <time>2013-04-16T18:54:54Z</time>
      </trkpt>
      <trkpt lat="41.536632000" lon="1.875034000">
        <ele>181.70</ele>
        <time>2013-04-16T18:54:59Z</time>
      </trkpt>
      <trkpt lat="41.536470000" lon="1.875273000">
        <ele>182.30</ele>
        <time>2013-04-16T18:55:04Z</time>
      </trkpt>
      <trkpt lat="41.536303000" lon="1.875481000">
        <ele>183.10</ele>
        <time>2013-04-16T18:55:09Z</time>
      </trkpt>
      <trkpt lat="41.536145000" lon="1.875690000">
        <ele>183.40</ele>
        <time>2013-04-16T18:55:14Z</time>
      </trkpt>
      <trkpt lat="41.535995000" lon="1.875907000">
        <ele>184.10</ele>
        <time>2013-04-16T18:55:19Z</time>
      </trkpt>
      <trkpt lat="41.535844000" lon="1.876141000">
        <ele>184.00</ele>
        <time>2013-04-16T18:55:24Z</time>
      </trkpt>
      <trkpt lat="41.535714000" lon="1.876387000">
        <ele>184.30</ele>
        <time>2013-04-16T18:55:29Z</time>
      </trkpt>
      <trkpt lat="41.535625000" lon="1.876663000">
        <ele>184.20</ele>
        <time>2013-04-16T18:55:34Z</time>
      </trkpt>
      <trkpt lat="41.535541000" lon="1.876900000">
        <ele>184.10</ele>
        <time>2013-04-16T18:55:38Z</time>
      </trkpt>
      <trkpt lat="41.535474000" lon="1.877120000">
        <ele>183.70</ele>
        <time>2013-04-16T18:55:42Z</time>
      </trkpt>
      <trkpt lat="41.535381000" lon="1.877293000">
        <ele>184.90</ele>
        <time>2013-04-16T18:57:12Z</time>
      </trkpt>
      <trkpt lat="41.535359000" lon="1.877528000">
        <ele>183.90</ele>
        <time>2013-04-16T18:57:21Z</time>
      </trkpt>
      <trkpt lat="41.535280000" lon="1.877750000">
        <ele>183.30</ele>
        <time>2013-04-16T18:57:27Z</time>
      </trkpt>
      <trkpt lat="41.535153000" lon="1.877979000">
        <ele>182.80</ele>
        <time>2013-04-16T18:57:32Z</time>
      </trkpt>
      <trkpt lat="41.535014000" lon="1.878159000">
        <ele>182.20</ele>
        <time>2013-04-16T18:57:36Z</time>
      </trkpt>
      <trkpt lat="41.534885000" lon="1.878359000">
        <ele>182.50</ele>
        <time>2013-04-16T18:57:41Z</time>
      </trkpt>
      <trkpt lat="41.534706000" lon="1.878468000">
        <ele>181.60</ele>
        <time>2013-04-16T18:57:46Z</time>
      </trkpt>
      <trkpt lat="41.534508000" lon="1.878595000">
        <ele>180.80</ele>
        <time>2013-04-16T18:57:51Z</time>
      </trkpt>
      <trkpt lat="41.534327000" lon="1.878706000">
        <ele>179.50</ele>
        <time>2013-04-16T18:57:55Z</time>
      </trkpt>
      <trkpt lat="41.534144000" lon="1.878813000">
        <ele>179.90</ele>
        <time>2013-04-16T18:58:00Z</time>
      </trkpt>
      <trkpt lat="41.533961000" lon="1.878799000">
        <ele>178.90</ele>
        <time>2013-04-16T18:58:08Z</time>
      </trkpt>
      <trkpt lat="41.533760000" lon="1.878896000">
        <ele>176.80</ele>
        <time>2013-04-16T18:58:13Z</time>
      </trkpt>
      <trkpt lat="41.533613000" lon="1.879109000">
        <ele>176.40</ele>
        <time>2013-04-16T18:58:18Z</time>
      </trkpt>
      <trkpt lat="41.533527000" lon="1.879372000">
        <ele>174.70</ele>
        <time>2013-04-16T18:58:22Z</time>
      </trkpt>
      <trkpt lat="41.533448000" lon="1.879676000">
        <ele>172.60</ele>
        <time>2013-04-16T18:58:26Z</time>
      </trkpt>
      <trkpt lat="41.533373000" lon="1.879921000">
        <ele>171.40</ele>
        <time>2013-04-16T18:58:29Z</time>
      </trkpt>
      <trkpt lat="41.533274000" lon="1.880160000">
        <ele>170.70</ele>
        <time>2013-04-16T18:58:32Z</time>
      </trkpt>
      <trkpt lat="41.533160000" lon="1.880383000">
        <ele>170.40</ele>
        <time>2013-04-16T18:58:35Z</time>
      </trkpt>
      <trkpt lat="41.533014000" lon="1.880555000">
        <ele>169.50</ele>
        <time>2013-04-16T18:58:38Z</time>
      </trkpt>
      <trkpt lat="41.532838000" lon="1.880672000">
        <ele>168.60</ele>
        <time>2013-04-16T18:58:41Z</time>
      </trkpt>
      <trkpt lat="41.532668000" lon="1.880789000">
        <ele>168.20</ele>
        <time>2013-04-16T18:58:44Z</time>
      </trkpt>
      <trkpt lat="41.532510000" lon="1.880906000">
        <ele>168.00</ele>
        <time>2013-04-16T18:58:47Z</time>
      </trkpt>
      <trkpt lat="41.532318000" lon="1.881092000">
        <ele>167.00</ele>
        <time>2013-04-16T18:58:51Z</time>
      </trkpt>
      <trkpt lat="41.532164000" lon="1.881240000">
        <ele>166.10</ele>
        <time>2013-04-16T18:58:54Z</time>
      </trkpt>
      <trkpt lat="41.532000000" lon="1.881391000">
        <ele>165.10</ele>
        <time>2013-04-16T18:58:57Z</time>
      </trkpt>
      <trkpt lat="41.531828000" lon="1.881515000">
        <ele>165.10</ele>
        <time>2013-04-16T18:59:00Z</time>
      </trkpt>
      <trkpt lat="41.531651000" lon="1.881614000">
        <ele>164.80</ele>
        <time>2013-04-16T18:59:03Z</time>
      </trkpt>
      <trkpt lat="41.531484000" lon="1.881726000">
        <ele>164.60</ele>
        <time>2013-04-16T18:59:06Z</time>
      </trkpt>
      <trkpt lat="41.531317000" lon="1.881831000">
        <ele>163.70</ele>
        <time>2013-04-16T18:59:09Z</time>
      </trkpt>
      <trkpt lat="41.531168000" lon="1.881981000">
        <ele>163.50</ele>
        <time>2013-04-16T18:59:12Z</time>
      </trkpt>
      <trkpt lat="41.531053000" lon="1.882182000">
        <ele>163.10</ele>
        <time>2013-04-16T18:59:15Z</time>
      </trkpt>
      <trkpt lat="41.530939000" lon="1.882378000">
        <ele>162.90</ele>
        <time>2013-04-16T18:59:18Z</time>
      </trkpt>
      <trkpt lat="41.530833000" lon="1.882577000">
        <ele>162.60</ele>
        <time>2013-04-16T18:59:21Z</time>
      </trkpt>
      <trkpt lat="41.530707000" lon="1.882828000">
        <ele>162.70</ele>
        <time>2013-04-16T18:59:25Z</time>
      </trkpt>
      <trkpt lat="41.530621000" lon="1.883104000">
        <ele>162.00</ele>
        <time>2013-04-16T18:59:29Z</time>
      </trkpt>
      <trkpt lat="41.530576000" lon="1.883413000">
        <ele>161.70</ele>
        <time>2013-04-16T18:59:33Z</time>
      </trkpt>
      <trkpt lat="41.530530000" lon="1.883712000">
        <ele>160.90</ele>
        <time>2013-04-16T18:59:37Z</time>
      </trkpt>
      <trkpt lat="41.530461000" lon="1.883940000">
        <ele>160.20</ele>
        <time>2013-04-16T18:59:40Z</time>
      </trkpt>
      <trkpt lat="41.530410000" lon="1.884185000">
        <ele>160.00</ele>
        <time>2013-04-16T18:59:43Z</time>
      </trkpt>
      <trkpt lat="41.530350000" lon="1.884415000">
        <ele>159.10</ele>
        <time>2013-04-16T18:59:46Z</time>
      </trkpt>
      <trkpt lat="41.530292000" lon="1.884645000">
        <ele>159.00</ele>
        <time>2013-04-16T18:59:49Z</time>
      </trkpt>
      <trkpt lat="41.530220000" lon="1.884918000">
        <ele>159.20</ele>
        <time>2013-04-16T18:59:53Z</time>
      </trkpt>
      <trkpt lat="41.530146000" lon="1.885184000">
        <ele>159.40</ele>
        <time>2013-04-16T18:59:57Z</time>
      </trkpt>
      <trkpt lat="41.530071000" lon="1.885468000">
        <ele>158.60</ele>
        <time>2013-04-16T19:00:01Z</time>
      </trkpt>
      <trkpt lat="41.529979000" lon="1.885753000">
        <ele>157.60</ele>
        <time>2013-04-16T19:00:05Z</time>
      </trkpt>
      <trkpt lat="41.529861000" lon="1.886012000">
        <ele>156.90</ele>
        <time>2013-04-16T19:00:09Z</time>
      </trkpt>
      <trkpt lat="41.529692000" lon="1.886126000">
        <ele>157.10</ele>
        <time>2013-04-16T19:00:13Z</time>
      </trkpt>
      <trkpt lat="41.529644000" lon="1.886379000">
        <ele>155.90</ele>
        <time>2013-04-16T19:00:17Z</time>
      </trkpt>
      <trkpt lat="41.529570000" lon="1.886650000">
        <ele>155.30</ele>
        <time>2013-04-16T19:00:21Z</time>
      </trkpt>
      <trkpt lat="41.529520000" lon="1.886933000">
        <ele>154.20</ele>
        <time>2013-04-16T19:00:25Z</time>
      </trkpt>
      <trkpt lat="41.529443000" lon="1.887163000">
        <ele>151.90</ele>
        <time>2013-04-16T19:00:28Z</time>
      </trkpt>
      <trkpt lat="41.529334000" lon="1.887387000">
        <ele>150.90</ele>
        <time>2013-04-16T19:00:31Z</time>
      </trkpt>
      <trkpt lat="41.529232000" lon="1.887620000">
        <ele>149.70</ele>
        <time>2013-04-16T19:00:34Z</time>
      </trkpt>
      <trkpt lat="41.529171000" lon="1.887879000">
        <ele>148.30</ele>
        <time>2013-04-16T19:00:37Z</time>
      </trkpt>
      <trkpt lat="41.529081000" lon="1.888142000">
        <ele>146.90</ele>
        <time>2013-04-16T19:00:41Z</time>
      </trkpt>
      <trkpt lat="41.528946000" lon="1.888341000">
        <ele>144.40</ele>
        <time>2013-04-16T19:00:45Z</time>
      </trkpt>
      <trkpt lat="41.529013000" lon="1.888609000">
        <ele>143.60</ele>
        <time>2013-04-16T19:00:50Z</time>
      </trkpt>
      <trkpt lat="41.528973000" lon="1.888913000">
        <ele>142.30</ele>
        <time>2013-04-16T19:00:54Z</time>
      </trkpt>
      <trkpt lat="41.528916000" lon="1.889145000">
        <ele>141.80</ele>
        <time>2013-04-16T19:00:57Z</time>
      </trkpt>
      <trkpt lat="41.528872000" lon="1.889445000">
        <ele>141.30</ele>
        <time>2013-04-16T19:01:01Z</time>
      </trkpt>
      <trkpt lat="41.528876000" lon="1.889724000">
        <ele>140.00</ele>
        <time>2013-04-16T19:01:05Z</time>
      </trkpt>
      <trkpt lat="41.528893000" lon="1.889997000">
        <ele>136.30</ele>
        <time>2013-04-16T19:01:10Z</time>
      </trkpt>
      <trkpt lat="41.528949000" lon="1.890234000">
        <ele>131.70</ele>
        <time>2013-04-16T19:01:14Z</time>
      </trkpt>
      <trkpt lat="41.529057000" lon="1.890518000">
        <ele>127.10</ele>
        <time>2013-04-16T19:01:18Z</time>
      </trkpt>
      <trkpt lat="41.529130000" lon="1.890798000">
        <ele>124.50</ele>
        <time>2013-04-16T19:01:22Z</time>
      </trkpt>
      <trkpt lat="41.529210000" lon="1.891095000">
        <ele>122.60</ele>
        <time>2013-04-16T19:01:26Z</time>
      </trkpt>
      <trkpt lat="41.529253000" lon="1.891333000">
        <ele>122.20</ele>
        <time>2013-04-16T19:01:31Z</time>
      </trkpt>
      <trkpt lat="41.529440000" lon="1.891339000">
        <ele>121.80</ele>
        <time>2013-04-16T19:01:37Z</time>
      </trkpt>
      <trkpt lat="41.529644000" lon="1.891255000">
        <ele>121.90</ele>
        <time>2013-04-16T19:01:41Z</time>
      </trkpt>
      <trkpt lat="41.529859000" lon="1.891160000">
        <ele>122.20</ele>
        <time>2013-04-16T19:01:45Z</time>
      </trkpt>
      <trkpt lat="41.530080000" lon="1.891072000">
        <ele>122.20</ele>
        <time>2013-04-16T19:01:49Z</time>
      </trkpt>
      <trkpt lat="41.530307000" lon="1.891023000">
        <ele>122.10</ele>
        <time>2013-04-16T19:01:53Z</time>
      </trkpt>
      <trkpt lat="41.530490000" lon="1.890981000">
        <ele>121.80</ele>
        <time>2013-04-16T19:01:56Z</time>
      </trkpt>
      <trkpt lat="41.530676000" lon="1.890940000">
        <ele>121.40</ele>
        <time>2013-04-16T19:01:59Z</time>
      </trkpt>
      <trkpt lat="41.530863000" lon="1.890905000">
        <ele>121.50</ele>
        <time>2013-04-16T19:02:02Z</time>
      </trkpt>
      <trkpt lat="41.531053000" lon="1.890866000">
        <ele>121.30</ele>
        <time>2013-04-16T19:02:05Z</time>
      </trkpt>
      <trkpt lat="41.531238000" lon="1.890837000">
        <ele>121.10</ele>
        <time>2013-04-16T19:02:08Z</time>
      </trkpt>
      <trkpt lat="41.531460000" lon="1.890809000">
        <ele>121.40</ele>
        <time>2013-04-16T19:02:12Z</time>
      </trkpt>
      <trkpt lat="41.531509000" lon="1.891043000">
        <ele>119.10</ele>
        <time>2013-04-16T19:02:17Z</time>
      </trkpt>
      <trkpt lat="41.531426000" lon="1.891344000">
        <ele>117.70</ele>
        <time>2013-04-16T19:02:21Z</time>
      </trkpt>
      <trkpt lat="41.531358000" lon="1.891588000">
        <ele>116.90</ele>
        <time>2013-04-16T19:02:24Z</time>
      </trkpt>
      <trkpt lat="41.531292000" lon="1.891834000">
        <ele>115.70</ele>
        <time>2013-04-16T19:02:27Z</time>
      </trkpt>
      <trkpt lat="41.531235000" lon="1.892100000">
        <ele>115.00</ele>
        <time>2013-04-16T19:02:30Z</time>
      </trkpt>
      <trkpt lat="41.531179000" lon="1.892366000">
        <ele>114.30</ele>
        <time>2013-04-16T19:02:33Z</time>
      </trkpt>
      <trkpt lat="41.531118000" lon="1.892623000">
        <ele>113.50</ele>
        <time>2013-04-16T19:02:36Z</time>
      </trkpt>
      <trkpt lat="41.531057000" lon="1.892867000">
        <ele>112.60</ele>
        <time>2013-04-16T19:02:39Z</time>
      </trkpt>
      <trkpt lat="41.530988000" lon="1.893103000">
        <ele>112.70</ele>
        <time>2013-04-16T19:02:42Z</time>
      </trkpt>
      <trkpt lat="41.530919000" lon="1.893331000">
        <ele>112.20</ele>
        <time>2013-04-16T19:02:45Z</time>
      </trkpt>
      <trkpt lat="41.530845000" lon="1.893562000">
        <ele>111.50</ele>
        <time>2013-04-16T19:02:48Z</time>
      </trkpt>
      <trkpt lat="41.530754000" lon="1.893802000">
        <ele>110.60</ele>
        <time>2013-04-16T19:02:51Z</time>
      </trkpt>
      <trkpt lat="41.530671000" lon="1.894043000">
        <ele>109.90</ele>
        <time>2013-04-16T19:02:54Z</time>
      </trkpt>
      <trkpt lat="41.530584000" lon="1.894282000">
        <ele>108.90</ele>
        <time>2013-04-16T19:02:57Z</time>
      </trkpt>
      <trkpt lat="41.530493000" lon="1.894519000">
        <ele>107.20</ele>
        <time>2013-04-16T19:03:00Z</time>
      </trkpt>
      <trkpt lat="41.530407000" lon="1.894755000">
        <ele>107.40</ele>
        <time>2013-04-16T19:03:03Z</time>
      </trkpt>
      <trkpt lat="41.530314000" lon="1.894984000">
        <ele>106.70</ele>
        <time>2013-04-16T19:03:06Z</time>
      </trkpt>
      <trkpt lat="41.530222000" lon="1.895209000">
        <ele>106.10</ele>
        <time>2013-04-16T19:03:09Z</time>
      </trkpt>
      <trkpt lat="41.530115000" lon="1.895426000">
        <ele>105.70</ele>
        <time>2013-04-16T19:03:12Z</time>
      </trkpt>
      <trkpt lat="41.530037000" lon="1.895664000">
        <ele>105.80</ele>
        <time>2013-04-16T19:03:15Z</time>
      </trkpt>
      <trkpt lat="41.529998000" lon="1.895909000">
        <ele>106.00</ele>
        <time>2013-04-16T19:03:18Z</time>
      </trkpt>
      <trkpt lat="41.529961000" lon="1.896139000">
        <ele>105.70</ele>
        <time>2013-04-16T19:03:21Z</time>
      </trkpt>
      <trkpt lat="41.529916000" lon="1.896377000">
        <ele>106.00</ele>
        <time>2013-04-16T19:03:24Z</time>
      </trkpt>
      <trkpt lat="41.529883000" lon="1.896618000">
        <ele>105.80</ele>
        <time>2013-04-16T19:03:27Z</time>
      </trkpt>
      <trkpt lat="41.529855000" lon="1.896907000">
        <ele>105.70</ele>
        <time>2013-04-16T19:03:31Z</time>
      </trkpt>
      <trkpt lat="41.529823000" lon="1.897202000">
        <ele>104.60</ele>
        <time>2013-04-16T19:03:35Z</time>
      </trkpt>
      <trkpt lat="41.529761000" lon="1.897487000">
        <ele>104.30</ele>
        <time>2013-04-16T19:03:39Z</time>
      </trkpt>
      <trkpt lat="41.529693000" lon="1.897749000">
        <ele>104.40</ele>
        <time>2013-04-16T19:03:43Z</time>
      </trkpt>
      <trkpt lat="41.529651000" lon="1.898011000">
        <ele>103.80</ele>
        <time>2013-04-16T19:03:47Z</time>
      </trkpt>
      <trkpt lat="41.529629000" lon="1.898302000">
        <ele>101.20</ele>
        <time>2013-04-16T19:03:51Z</time>
      </trkpt>
      <trkpt lat="41.529624000" lon="1.898552000">
        <ele>98.90</ele>
        <time>2013-04-16T19:03:54Z</time>
      </trkpt>
      <trkpt lat="41.529615000" lon="1.898845000">
        <ele>97.00</ele>
        <time>2013-04-16T19:03:57Z</time>
      </trkpt>
      <trkpt lat="41.529608000" lon="1.899163000">
        <ele>94.70</ele>
        <time>2013-04-16T19:04:00Z</time>
      </trkpt>
      <trkpt lat="41.529599000" lon="1.899481000">
        <ele>93.40</ele>
        <time>2013-04-16T19:04:03Z</time>
      </trkpt>
      <trkpt lat="41.529592000" lon="1.899797000">
        <ele>93.00</ele>
        <time>2013-04-16T19:04:06Z</time>
      </trkpt>
      <trkpt lat="41.529574000" lon="1.900097000">
        <ele>92.20</ele>
        <time>2013-04-16T19:04:09Z</time>
      </trkpt>
      <trkpt lat="41.529557000" lon="1.900384000">
        <ele>91.00</ele>
        <time>2013-04-16T19:04:12Z</time>
      </trkpt>
      <trkpt lat="41.529536000" lon="1.900660000">
        <ele>90.90</ele>
        <time>2013-04-16T19:04:15Z</time>
      </trkpt>
      <trkpt lat="41.529500000" lon="1.900906000">
        <ele>90.60</ele>
        <time>2013-04-16T19:04:18Z</time>
      </trkpt>
      <trkpt lat="41.529451000" lon="1.901130000">
        <ele>90.90</ele>
        <time>2013-04-16T19:04:21Z</time>
      </trkpt>
      <trkpt lat="41.529429000" lon="1.901367000">
        <ele>89.90</ele>
        <time>2013-04-16T19:04:24Z</time>
      </trkpt>
      <trkpt lat="41.529421000" lon="1.901615000">
        <ele>88.90</ele>
        <time>2013-04-16T19:04:27Z</time>
      </trkpt>
      <trkpt lat="41.529418000" lon="1.901874000">
        <ele>87.40</ele>
        <time>2013-04-16T19:04:30Z</time>
      </trkpt>
      <trkpt lat="41.529376000" lon="1.902169000">
        <ele>83.60</ele>
        <time>2013-04-16T19:04:33Z</time>
      </trkpt>
      <trkpt lat="41.529296000" lon="1.902498000">
        <ele>80.50</ele>
        <time>2013-04-16T19:04:36Z</time>
      </trkpt>
      <trkpt lat="41.529212000" lon="1.902841000">
        <ele>79.10</ele>
        <time>2013-04-16T19:04:39Z</time>
      </trkpt>
      <trkpt lat="41.529202000" lon="1.903177000">
        <ele>78.30</ele>
        <time>2013-04-16T19:04:42Z</time>
      </trkpt>
      <trkpt lat="41.529248000" lon="1.903477000">
        <ele>79.00</ele>
        <time>2013-04-16T19:04:45Z</time>
      </trkpt>
      <trkpt lat="41.529310000" lon="1.903717000">
        <ele>79.30</ele>
        <time>2013-04-16T19:04:48Z</time>
      </trkpt>
      <trkpt lat="41.529387000" lon="1.904017000">
        <ele>78.00</ele>
        <time>2013-04-16T19:04:52Z</time>
      </trkpt>
      <trkpt lat="41.529480000" lon="1.904318000">
        <ele>76.70</ele>
        <time>2013-04-16T19:04:56Z</time>
      </trkpt>
      <trkpt lat="41.529564000" lon="1.904590000">
        <ele>73.80</ele>
        <time>2013-04-16T19:04:59Z</time>
      </trkpt>
      <trkpt lat="41.529633000" lon="1.904925000">
        <ele>70.70</ele>
        <time>2013-04-16T19:05:02Z</time>
      </trkpt>
      <trkpt lat="41.529705000" lon="1.905244000">
        <ele>71.00</ele>
        <time>2013-04-16T19:05:05Z</time>
      </trkpt>
      <trkpt lat="41.529830000" lon="1.905404000">
        <ele>73.80</ele>
        <time>2013-04-16T19:05:08Z</time>
      </trkpt>
      <trkpt lat="41.529951000" lon="1.905235000">
        <ele>77.80</ele>
        <time>2013-04-16T19:05:15Z</time>
      </trkpt>
      <trkpt lat="41.530087000" lon="1.905077000">
        <ele>79.90</ele>
        <time>2013-04-16T19:05:23Z</time>
      </trkpt>
      <trkpt lat="41.530273000" lon="1.904954000">
        <ele>80.00</ele>
        <time>2013-04-16T19:05:29Z</time>
      </trkpt>
      <trkpt lat="41.530446000" lon="1.904836000">
        <ele>79.90</ele>
        <time>2013-04-16T19:05:34Z</time>
      </trkpt>
      <trkpt lat="41.530618000" lon="1.904700000">
        <ele>80.00</ele>
        <time>2013-04-16T19:05:39Z</time>
      </trkpt>
      <trkpt lat="41.530812000" lon="1.904579000">
        <ele>79.80</ele>
        <time>2013-04-16T19:05:44Z</time>
      </trkpt>
      <trkpt lat="41.530997000" lon="1.904471000">
        <ele>79.60</ele>
        <time>2013-04-16T19:05:49Z</time>
      </trkpt>
      <trkpt lat="41.531177000" lon="1.904312000">
        <ele>79.70</ele>
        <time>2013-04-16T19:05:54Z</time>
      </trkpt>
      <trkpt lat="41.531338000" lon="1.904115000">
        <ele>79.30</ele>
        <time>2013-04-16T19:05:59Z</time>
      </trkpt>
      <trkpt lat="41.531463000" lon="1.903936000">
        <ele>79.10</ele>
        <time>2013-04-16T19:06:03Z</time>
      </trkpt>
      <trkpt lat="41.531724000" lon="1.903574000">
        <ele>79.10</ele>
        <time>2013-04-16T19:06:11Z</time>
      </trkpt>
      <trkpt lat="41.531898000" lon="1.903342000">
        <ele>78.60</ele>
        <time>2013-04-16T19:06:16Z</time>
      </trkpt>
      <trkpt lat="41.532012000" lon="1.903107000">
        <ele>78.20</ele>
        <time>2013-04-16T19:06:20Z</time>
      </trkpt>
      <trkpt lat="41.532119000" lon="1.902858000">
        <ele>77.90</ele>
        <time>2013-04-16T19:06:24Z</time>
      </trkpt>
      <trkpt lat="41.532243000" lon="1.902617000">
        <ele>77.90</ele>
        <time>2013-04-16T19:06:28Z</time>
      </trkpt>
      <trkpt lat="41.532309000" lon="1.902376000">
        <ele>78.00</ele>
        <time>2013-04-16T19:06:32Z</time>
      </trkpt>
      <trkpt lat="41.532342000" lon="1.902131000">
        <ele>78.00</ele>
        <time>2013-04-16T19:06:36Z</time>
      </trkpt>
      <trkpt lat="41.532408000" lon="1.901906000">
        <ele>78.00</ele>
        <time>2013-04-16T19:06:40Z</time>
      </trkpt>
      <trkpt lat="41.532499000" lon="1.901681000">
        <ele>77.80</ele>
        <time>2013-04-16T19:06:44Z</time>
      </trkpt>
      <trkpt lat="41.532622000" lon="1.901439000">
        <ele>77.00</ele>
        <time>2013-04-16T19:06:48Z</time>
      </trkpt>
      <trkpt lat="41.532745000" lon="1.901251000">
        <ele>76.40</ele>
        <time>2013-04-16T19:06:51Z</time>
      </trkpt>
      <trkpt lat="41.532874000" lon="1.901063000">
        <ele>76.90</ele>
        <time>2013-04-16T19:06:54Z</time>
      </trkpt>
      <trkpt lat="41.533011000" lon="1.900888000">
        <ele>77.10</ele>
        <time>2013-04-16T19:06:57Z</time>
      </trkpt>
      <trkpt lat="41.533159000" lon="1.900724000">
        <ele>76.80</ele>
        <time>2013-04-16T19:07:00Z</time>
      </trkpt>
      <trkpt lat="41.533321000" lon="1.900578000">
        <ele>76.80</ele>
        <time>2013-04-16T19:07:03Z</time>
      </trkpt>
      <trkpt lat="41.533485000" lon="1.900437000">
        <ele>77.10</ele>
        <time>2013-04-16T19:07:06Z</time>
      </trkpt>
      <trkpt lat="41.533664000" lon="1.900296000">
        <ele>77.00</ele>
        <time>2013-04-16T19:07:09Z</time>
      </trkpt>
      <trkpt lat="41.533847000" lon="1.900159000">
        <ele>77.10</ele>
        <time>2013-04-16T19:07:12Z</time>
      </trkpt>
      <trkpt lat="41.534027000" lon="1.900021000">
        <ele>77.30</ele>
        <time>2013-04-16T19:07:15Z</time>
      </trkpt>
      <trkpt lat="41.534210000" lon="1.899881000">
        <ele>76.90</ele>
        <time>2013-04-16T19:07:18Z</time>
      </trkpt>
      <trkpt lat="41.534397000" lon="1.899742000">
        <ele>76.90</ele>
        <time>2013-04-16T19:07:21Z</time>
      </trkpt>
      <trkpt lat="41.534586000" lon="1.899594000">
        <ele>76.90</ele>
        <time>2013-04-16T19:07:24Z</time>
      </trkpt>
      <trkpt lat="41.534771000" lon="1.899446000">
        <ele>77.20</ele>
        <time>2013-04-16T19:07:27Z</time>
      </trkpt>
      <trkpt lat="41.534955000" lon="1.899304000">
        <ele>76.80</ele>
        <time>2013-04-16T19:07:30Z</time>
      </trkpt>
      <trkpt lat="41.535138000" lon="1.899163000">
        <ele>77.70</ele>
        <time>2013-04-16T19:07:33Z</time>
      </trkpt>
      <trkpt lat="41.535318000" lon="1.899023000">
        <ele>77.10</ele>
        <time>2013-04-16T19:07:36Z</time>
      </trkpt>
      <trkpt lat="41.535498000" lon="1.898872000">
        <ele>77.00</ele>
        <time>2013-04-16T19:07:39Z</time>
      </trkpt>
      <trkpt lat="41.535677000" lon="1.898728000">
        <ele>77.10</ele>
        <time>2013-04-16T19:07:42Z</time>
      </trkpt>
      <trkpt lat="41.535848000" lon="1.898563000">
        <ele>77.40</ele>
        <time>2013-04-16T19:07:45Z</time>
      </trkpt>
      <trkpt lat="41.536007000" lon="1.898386000">
        <ele>77.00</ele>
        <time>2013-04-16T19:07:48Z</time>
      </trkpt>
      <trkpt lat="41.536154000" lon="1.898188000">
        <ele>77.50</ele>
        <time>2013-04-16T19:07:51Z</time>
      </trkpt>
      <trkpt lat="41.536287000" lon="1.897984000">
        <ele>77.30</ele>
        <time>2013-04-16T19:07:54Z</time>
      </trkpt>
      <trkpt lat="41.536415000" lon="1.897765000">
        <ele>77.10</ele>
        <time>2013-04-16T19:07:57Z</time>
      </trkpt>
      <trkpt lat="41.536527000" lon="1.897541000">
        <ele>77.50</ele>
        <time>2013-04-16T19:08:00Z</time>
      </trkpt>
      <trkpt lat="41.536626000" lon="1.897301000">
        <ele>77.80</ele>
        <time>2013-04-16T19:08:03Z</time>
      </trkpt>
      <trkpt lat="41.536713000" lon="1.897061000">
        <ele>78.00</ele>
        <time>2013-04-16T19:08:06Z</time>
      </trkpt>
      <trkpt lat="41.536788000" lon="1.896820000">
        <ele>77.90</ele>
        <time>2013-04-16T19:08:09Z</time>
      </trkpt>
      <trkpt lat="41.536846000" lon="1.896573000">
        <ele>78.00</ele>
        <time>2013-04-16T19:08:12Z</time>
      </trkpt>
      <trkpt lat="41.536897000" lon="1.896319000">
        <ele>77.90</ele>
        <time>2013-04-16T19:08:15Z</time>
      </trkpt>
      <trkpt lat="41.536936000" lon="1.896066000">
        <ele>78.30</ele>
        <time>2013-04-16T19:08:18Z</time>
      </trkpt>
      <trkpt lat="41.536984000" lon="1.895821000">
        <ele>78.30</ele>
        <time>2013-04-16T19:08:21Z</time>
      </trkpt>
      <trkpt lat="41.537060000" lon="1.895608000">
        <ele>78.80</ele>
        <time>2013-04-16T19:08:24Z</time>
      </trkpt>
      <trkpt lat="41.537192000" lon="1.895379000">
        <ele>79.40</ele>
        <time>2013-04-16T19:08:28Z</time>
      </trkpt>
      <trkpt lat="41.537273000" lon="1.895132000">
        <ele>80.20</ele>
        <time>2013-04-16T19:08:32Z</time>
      </trkpt>
      <trkpt lat="41.537450000" lon="1.895011000">
        <ele>80.90</ele>
        <time>2013-04-16T19:08:36Z</time>
      </trkpt>
      <trkpt lat="41.537643000" lon="1.894928000">
        <ele>81.20</ele>
        <time>2013-04-16T19:08:40Z</time>
      </trkpt>
      <trkpt lat="41.537833000" lon="1.894855000">
        <ele>82.10</ele>
        <time>2013-04-16T19:08:44Z</time>
      </trkpt>
      <trkpt lat="41.537987000" lon="1.894728000">
        <ele>82.80</ele>
        <time>2013-04-16T19:08:48Z</time>
      </trkpt>
      <trkpt lat="41.538086000" lon="1.894503000">
        <ele>84.00</ele>
        <time>2013-04-16T19:08:52Z</time>
      </trkpt>
      <trkpt lat="41.538160000" lon="1.894270000">
        <ele>84.90</ele>
        <time>2013-04-16T19:08:57Z</time>
      </trkpt>
      <trkpt lat="41.538277000" lon="1.894067000">
        <ele>83.80</ele>
        <time>2013-04-16T19:09:02Z</time>
      </trkpt>
      <trkpt lat="41.538390000" lon="1.893833000">
        <ele>83.90</ele>
        <time>2013-04-16T19:09:07Z</time>
      </trkpt>
      <trkpt lat="41.538471000" lon="1.893583000">
        <ele>83.80</ele>
        <time>2013-04-16T19:09:12Z</time>
      </trkpt>
      <trkpt lat="41.538552000" lon="1.893351000">
        <ele>83.60</ele>
        <time>2013-04-16T19:09:17Z</time>
      </trkpt>
      <trkpt lat="41.538618000" lon="1.893123000">
        <ele>84.00</ele>
        <time>2013-04-16T19:09:22Z</time>
      </trkpt>
      <trkpt lat="41.538701000" lon="1.892900000">
        <ele>84.60</ele>
        <time>2013-04-16T19:09:27Z</time>
      </trkpt>
      <trkpt lat="41.538757000" lon="1.892660000">
        <ele>85.20</ele>
        <time>2013-04-16T19:09:32Z</time>
      </trkpt>
      <trkpt lat="41.538830000" lon="1.892416000">
        <ele>86.10</ele>
        <time>2013-04-16T19:09:39Z</time>
      </trkpt>
      <trkpt lat="41.538906000" lon="1.892177000">
        <ele>86.70</ele>
        <time>2013-04-16T19:09:47Z</time>
      </trkpt>
      <trkpt lat="41.538905000" lon="1.891966000">
        <ele>86.70</ele>
        <time>2013-04-16T19:09:54Z</time>
      </trkpt>
      <trkpt lat="41.538819000" lon="1.891990000">
        <ele>86.10</ele>
        <time>2013-04-16T19:10:05Z</time>
      </trkpt>
      <trkpt lat="41.538855000" lon="1.891872000">
        <ele>84.40</ele>
        <time>2013-04-16T19:10:15Z</time>
      </trkpt>
      <trkpt lat="41.538796000" lon="1.892074000">
        <ele>83.10</ele>
        <time>2013-04-16T19:10:32Z</time>
      </trkpt>
      <trkpt lat="41.539062000" lon="1.892356000">
        <ele>85.70</ele>
        <time>2013-04-16T19:10:49Z</time>
      </trkpt>
      <trkpt lat="41.539072000" lon="1.892428000">
        <ele>87.00</ele>
        <time>2013-04-16T19:11:00Z</time>
      </trkpt>
      <trkpt lat="41.539155000" lon="1.892215000">
        <ele>87.20</ele>
        <time>2013-04-16T19:11:10Z</time>
      </trkpt>
      <trkpt lat="41.539241000" lon="1.891986000">
        <ele>87.60</ele>
        <time>2013-04-16T19:11:18Z</time>
      </trkpt>
      <trkpt lat="41.539320000" lon="1.891746000">
        <ele>88.00</ele>
        <time>2013-04-16T19:11:26Z</time>
      </trkpt>
      <trkpt lat="41.539479000" lon="1.891725000">
        <ele>88.50</ele>
        <time>2013-04-16T19:11:33Z</time>
      </trkpt>
      <trkpt lat="41.539644000" lon="1.891809000">
        <ele>89.40</ele>
        <time>2013-04-16T19:11:45Z</time>
      </trkpt>
      <trkpt lat="41.539859000" lon="1.891894000">
        <ele>90.00</ele>
        <time>2013-04-16T19:11:53Z</time>
      </trkpt>
      <trkpt lat="41.540063000" lon="1.891945000">
        <ele>90.80</ele>
        <time>2013-04-16T19:12:01Z</time>
      </trkpt>
      <trkpt lat="41.540256000" lon="1.892043000">
        <ele>92.00</ele>
        <time>2013-04-16T19:12:11Z</time>
      </trkpt>
      <trkpt lat="41.540472000" lon="1.892108000">
        <ele>92.50</ele>
        <time>2013-04-16T19:12:20Z</time>
      </trkpt>
      <trkpt lat="41.540653000" lon="1.892203000">
        <ele>93.10</ele>
        <time>2013-04-16T19:12:27Z</time>
      </trkpt>
      <trkpt lat="41.540997000" lon="1.892240000">
        <ele>95.30</ele>
        <time>2013-04-16T19:12:42Z</time>
      </trkpt>
      <trkpt lat="41.541229000" lon="1.892334000">
        <ele>96.00</ele>
        <time>2013-04-16T19:12:49Z</time>
      </trkpt>
      <trkpt lat="41.541418000" lon="1.892447000">
        <ele>96.80</ele>
        <time>2013-04-16T19:12:56Z</time>
      </trkpt>
      <trkpt lat="41.541636000" lon="1.892470000">
        <ele>97.60</ele>
        <time>2013-04-16T19:13:02Z</time>
      </trkpt>
      <trkpt lat="41.541846000" lon="1.892529000">
        <ele>98.10</ele>
        <time>2013-04-16T19:13:09Z</time>
      </trkpt>
      <trkpt lat="41.542051000" lon="1.892576000">
        <ele>99.10</ele>
        <time>2013-04-16T19:13:16Z</time>
      </trkpt>
      <trkpt lat="41.542264000" lon="1.892637000">
        <ele>100.00</ele>
        <time>2013-04-16T19:13:24Z</time>
      </trkpt>
      <trkpt lat="41.542523000" lon="1.892756000">
        <ele>100.60</ele>
        <time>2013-04-16T19:13:34Z</time>
      </trkpt>
      <trkpt lat="41.542729000" lon="1.892839000">
        <ele>101.30</ele>
        <time>2013-04-16T19:13:41Z</time>
      </trkpt>
      <trkpt lat="41.542922000" lon="1.892921000">
        <ele>101.80</ele>
        <time>2013-04-16T19:13:48Z</time>
      </trkpt>
      <trkpt lat="41.543119000" lon="1.892991000">
        <ele>102.70</ele>
        <time>2013-04-16T19:13:55Z</time>
      </trkpt>
      <trkpt lat="41.543257000" lon="1.892971000">
        <ele>103.00</ele>
        <time>2013-04-16T19:14:03Z</time>
      </trkpt>
      <trkpt lat="41.543302000" lon="1.892724000">
        <ele>103.30</ele>
        <time>2013-04-16T19:14:09Z</time>
      </trkpt>
      <trkpt lat="41.543356000" lon="1.892472000">
        <ele>103.50</ele>
        <time>2013-04-16T19:14:15Z</time>
      </trkpt>
      <trkpt lat="41.543408000" lon="1.892211000">
        <ele>103.60</ele>
        <time>2013-04-16T19:14:21Z</time>
      </trkpt>
      <trkpt lat="41.543475000" lon="1.891962000">
        <ele>103.10</ele>
        <time>2013-04-16T19:14:28Z</time>
      </trkpt>
      <trkpt lat="41.543541000" lon="1.891714000">
        <ele>103.80</ele>
        <time>2013-04-16T19:14:33Z</time>
      </trkpt>
      <trkpt lat="41.543599000" lon="1.891446000">
        <ele>103.90</ele>
        <time>2013-04-16T19:14:38Z</time>
      </trkpt>
      <trkpt lat="41.543643000" lon="1.891178000">
        <ele>104.00</ele>
        <time>2013-04-16T19:14:43Z</time>
      </trkpt>
      <trkpt lat="41.543690000" lon="1.890945000">
        <ele>103.10</ele>
        <time>2013-04-16T19:14:47Z</time>
      </trkpt>
      <trkpt lat="41.543737000" lon="1.890682000">
        <ele>102.50</ele>
        <time>2013-04-16T19:14:51Z</time>
      </trkpt>
      <trkpt lat="41.543789000" lon="1.890410000">
        <ele>101.90</ele>
        <time>2013-04-16T19:14:55Z</time>
      </trkpt>
      <trkpt lat="41.543852000" lon="1.890154000">
        <ele>101.40</ele>
        <time>2013-04-16T19:14:59Z</time>
      </trkpt>
      <trkpt lat="41.543905000" lon="1.889883000">
        <ele>101.40</ele>
        <time>2013-04-16T19:15:04Z</time>
      </trkpt>
      <trkpt lat="41.543958000" lon="1.889648000">
        <ele>100.70</ele>
        <time>2013-04-16T19:15:10Z</time>
      </trkpt>
      <trkpt lat="41.544001000" lon="1.889388000">
        <ele>99.90</ele>
        <time>2013-04-16T19:15:21Z</time>
      </trkpt>
      <trkpt lat="41.544060000" lon="1.889130000">
        <ele>99.20</ele>
        <time>2013-04-16T19:15:26Z</time>
      </trkpt>
      <trkpt lat="41.544111000" lon="1.888867000">
        <ele>98.60</ele>
        <time>2013-04-16T19:15:30Z</time>
      </trkpt>
      <trkpt lat="41.544193000" lon="1.888593000">
        <ele>97.30</ele>
        <time>2013-04-16T19:15:34Z</time>
      </trkpt>
      <trkpt lat="41.544244000" lon="1.888354000">
        <ele>96.20</ele>
        <time>2013-04-16T19:15:37Z</time>
      </trkpt>
      <trkpt lat="41.544303000" lon="1.888117000">
        <ele>96.10</ele>
        <time>2013-04-16T19:15:40Z</time>
      </trkpt>
      <trkpt lat="41.544376000" lon="1.887822000">
        <ele>96.70</ele>
        <time>2013-04-16T19:15:44Z</time>
      </trkpt>
      <trkpt lat="41.544428000" lon="1.887545000">
        <ele>96.50</ele>
        <time>2013-04-16T19:15:48Z</time>
      </trkpt>
      <trkpt lat="41.544484000" lon="1.887297000">
        <ele>97.40</ele>
        <time>2013-04-16T19:15:54Z</time>
      </trkpt>
      <trkpt lat="41.544560000" lon="1.887080000">
        <ele>97.30</ele>
        <time>2013-04-16T19:16:00Z</time>
      </trkpt>
      <trkpt lat="41.544688000" lon="1.886879000">
        <ele>97.30</ele>
        <time>2013-04-16T19:16:05Z</time>
      </trkpt>
      <trkpt lat="41.544810000" lon="1.886662000">
        <ele>96.90</ele>
        <time>2013-04-16T19:16:10Z</time>
      </trkpt>
      <trkpt lat="41.544906000" lon="1.886437000">
        <ele>97.30</ele>
        <time>2013-04-16T19:16:15Z</time>
      </trkpt>
      <trkpt lat="41.544820000" lon="1.886225000">
        <ele>96.80</ele>
        <time>2013-04-16T19:16:21Z</time>
      </trkpt>
    </trkseg>
  </trk>
</gpx>
